<?xml version="1.0" encoding="UTF-8" standalone="no" ?>
<gpx xmlns="http://www.topografix.com/GPX/1/1" xmlns:xsi="http://www.w3.org/2001/XMLSchema-instance" xsi:schemaLocation="http://www.topografix.com/GPX/1/1 http://www.topografix.com/GPX/1/1/gpx.xsd" version="1.1" creator="VisuGPX - https://www.visugpx.com">
  <metadata>
    <name>La Croix de Justin</name>
    <desc><![CDATA[Balade facile avec vues magnifiques sur Die et sa vallée.]]></desc>
  </metadata>
  <trk>
    <name><![CDATA[19 JUIN 2015]]></name>
    <trkseg>
      <trkpt lat="44.73995" lon="5.37336">
        <ele>509.64</ele>
        <time>2015-06-19T09:12:01Z</time>
      </trkpt>
      <trkpt lat="44.73995" lon="5.37333">
        <ele>512.04</ele>
        <time>2015-06-19T09:12:21Z</time>
      </trkpt>
      <trkpt lat="44.73995" lon="5.37333">
        <ele>512.04</ele>
        <time>2015-06-19T09:12:41Z</time>
      </trkpt>
      <trkpt lat="44.73994" lon="5.37332">
        <ele>512.04</ele>
        <time>2015-06-19T09:13:01Z</time>
      </trkpt>
      <trkpt lat="44.73993" lon="5.37331">
        <ele>511.56</ele>
        <time>2015-06-19T09:13:21Z</time>
      </trkpt>
      <trkpt lat="44.73982" lon="5.37321">
        <ele>512.52</ele>
        <time>2015-06-19T09:13:41Z</time>
      </trkpt>
      <trkpt lat="44.73977" lon="5.37302">
        <ele>513.48</ele>
        <time>2015-06-19T09:14:01Z</time>
      </trkpt>
      <trkpt lat="44.73981" lon="5.37283">
        <ele>515.4</ele>
        <time>2015-06-19T09:14:21Z</time>
      </trkpt>
      <trkpt lat="44.73982" lon="5.37266">
        <ele>517.33</ele>
        <time>2015-06-19T09:14:41Z</time>
      </trkpt>
      <trkpt lat="44.73981" lon="5.37245">
        <ele>518.77</ele>
        <time>2015-06-19T09:15:01Z</time>
      </trkpt>
      <trkpt lat="44.73981" lon="5.37223">
        <ele>520.21</ele>
        <time>2015-06-19T09:15:21Z</time>
      </trkpt>
      <trkpt lat="44.73986" lon="5.37195">
        <ele>523.58</ele>
        <time>2015-06-19T09:15:41Z</time>
      </trkpt>
      <trkpt lat="44.73991" lon="5.37169">
        <ele>524.54</ele>
        <time>2015-06-19T09:16:01Z</time>
      </trkpt>
      <trkpt lat="44.73999" lon="5.37147">
        <ele>526.46</ele>
        <time>2015-06-19T09:16:21Z</time>
      </trkpt>
      <trkpt lat="44.74005" lon="5.37122">
        <ele>528.38</ele>
        <time>2015-06-19T09:16:41Z</time>
      </trkpt>
      <trkpt lat="44.74007" lon="5.37098">
        <ele>530.3</ele>
        <time>2015-06-19T09:17:01Z</time>
      </trkpt>
      <trkpt lat="44.74014" lon="5.37076">
        <ele>531.27</ele>
        <time>2015-06-19T09:17:21Z</time>
      </trkpt>
      <trkpt lat="44.74015" lon="5.37057">
        <ele>532.71</ele>
        <time>2015-06-19T09:17:41Z</time>
      </trkpt>
      <trkpt lat="44.74004" lon="5.37048">
        <ele>534.15</ele>
        <time>2015-06-19T09:18:01Z</time>
      </trkpt>
      <trkpt lat="44.73998" lon="5.37054">
        <ele>535.59</ele>
        <time>2015-06-19T09:18:21Z</time>
      </trkpt>
      <trkpt lat="44.73998" lon="5.37054">
        <ele>535.11</ele>
        <time>2015-06-19T09:18:41Z</time>
      </trkpt>
      <trkpt lat="44.73998" lon="5.37055">
        <ele>535.59</ele>
        <time>2015-06-19T09:19:01Z</time>
      </trkpt>
      <trkpt lat="44.73998" lon="5.37055">
        <ele>535.11</ele>
        <time>2015-06-19T09:19:21Z</time>
      </trkpt>
      <trkpt lat="44.73998" lon="5.37055">
        <ele>535.59</ele>
        <time>2015-06-19T09:19:41Z</time>
      </trkpt>
      <trkpt lat="44.73994" lon="5.37059">
        <ele>536.07</ele>
        <time>2015-06-19T09:20:01Z</time>
      </trkpt>
      <trkpt lat="44.73984" lon="5.37073">
        <ele>537.51</ele>
        <time>2015-06-19T09:20:21Z</time>
      </trkpt>
      <trkpt lat="44.73976" lon="5.37087">
        <ele>539.44</ele>
        <time>2015-06-19T09:20:41Z</time>
      </trkpt>
      <trkpt lat="44.73972" lon="5.37095">
        <ele>539.92</ele>
        <time>2015-06-19T09:21:01Z</time>
      </trkpt>
      <trkpt lat="44.73962" lon="5.37108">
        <ele>541.84</ele>
        <time>2015-06-19T09:21:21Z</time>
      </trkpt>
      <trkpt lat="44.73949" lon="5.37125">
        <ele>544.24</ele>
        <time>2015-06-19T09:21:41Z</time>
      </trkpt>
      <trkpt lat="44.73937" lon="5.37139">
        <ele>546.17</ele>
        <time>2015-06-19T09:22:01Z</time>
      </trkpt>
      <trkpt lat="44.73923" lon="5.37148">
        <ele>548.57</ele>
        <time>2015-06-19T09:22:21Z</time>
      </trkpt>
      <trkpt lat="44.73917" lon="5.37151">
        <ele>549.05</ele>
        <time>2015-06-19T09:22:41Z</time>
      </trkpt>
      <trkpt lat="44.73917" lon="5.3715">
        <ele>549.53</ele>
        <time>2015-06-19T09:23:01Z</time>
      </trkpt>
      <trkpt lat="44.73914" lon="5.37157">
        <ele>550.01</ele>
        <time>2015-06-19T09:23:21Z</time>
      </trkpt>
      <trkpt lat="44.73909" lon="5.37163">
        <ele>550.49</ele>
        <time>2015-06-19T09:23:41Z</time>
      </trkpt>
      <trkpt lat="44.73905" lon="5.37172">
        <ele>552.41</ele>
        <time>2015-06-19T09:24:01Z</time>
      </trkpt>
      <trkpt lat="44.73893" lon="5.37191">
        <ele>554.82</ele>
        <time>2015-06-19T09:24:21Z</time>
      </trkpt>
      <trkpt lat="44.73879" lon="5.37203">
        <ele>556.74</ele>
        <time>2015-06-19T09:24:41Z</time>
      </trkpt>
      <trkpt lat="44.73868" lon="5.37213">
        <ele>558.18</ele>
        <time>2015-06-19T09:25:01Z</time>
      </trkpt>
      <trkpt lat="44.73853" lon="5.37223">
        <ele>559.62</ele>
        <time>2015-06-19T09:25:21Z</time>
      </trkpt>
      <trkpt lat="44.7385" lon="5.37235">
        <ele>561.55</ele>
        <time>2015-06-19T09:25:41Z</time>
      </trkpt>
      <trkpt lat="44.73855" lon="5.37262">
        <ele>562.03</ele>
        <time>2015-06-19T09:26:01Z</time>
      </trkpt>
      <trkpt lat="44.73851" lon="5.37271">
        <ele>563.47</ele>
        <time>2015-06-19T09:26:21Z</time>
      </trkpt>
      <trkpt lat="44.73855" lon="5.37298">
        <ele>566.83</ele>
        <time>2015-06-19T09:26:41Z</time>
      </trkpt>
      <trkpt lat="44.73855" lon="5.37299">
        <ele>566.83</ele>
        <time>2015-06-19T09:27:01Z</time>
      </trkpt>
      <trkpt lat="44.73855" lon="5.37299">
        <ele>565.87</ele>
        <time>2015-06-19T09:27:21Z</time>
      </trkpt>
      <trkpt lat="44.73855" lon="5.373">
        <ele>566.35</ele>
        <time>2015-06-19T09:27:41Z</time>
      </trkpt>
      <trkpt lat="44.73855" lon="5.373">
        <ele>566.83</ele>
        <time>2015-06-19T09:28:01Z</time>
      </trkpt>
      <trkpt lat="44.73855" lon="5.37322">
        <ele>568.28</ele>
        <time>2015-06-19T09:28:21Z</time>
      </trkpt>
      <trkpt lat="44.73852" lon="5.37348">
        <ele>570.68</ele>
        <time>2015-06-19T09:28:41Z</time>
      </trkpt>
      <trkpt lat="44.73848" lon="5.37364">
        <ele>573.56</ele>
        <time>2015-06-19T09:29:01Z</time>
      </trkpt>
      <trkpt lat="44.73853" lon="5.37383">
        <ele>575.97</ele>
        <time>2015-06-19T09:29:21Z</time>
      </trkpt>
      <trkpt lat="44.73857" lon="5.37404">
        <ele>578.37</ele>
        <time>2015-06-19T09:29:41Z</time>
      </trkpt>
      <trkpt lat="44.73849" lon="5.37423">
        <ele>581.73</ele>
        <time>2015-06-19T09:30:01Z</time>
      </trkpt>
      <trkpt lat="44.7384" lon="5.37441">
        <ele>584.62</ele>
        <time>2015-06-19T09:30:21Z</time>
      </trkpt>
      <trkpt lat="44.73832" lon="5.37456">
        <ele>587.02</ele>
        <time>2015-06-19T09:30:41Z</time>
      </trkpt>
      <trkpt lat="44.73824" lon="5.37473">
        <ele>589.91</ele>
        <time>2015-06-19T09:31:01Z</time>
      </trkpt>
      <trkpt lat="44.7382" lon="5.37491">
        <ele>592.31</ele>
        <time>2015-06-19T09:31:21Z</time>
      </trkpt>
      <trkpt lat="44.73807" lon="5.3751">
        <ele>594.23</ele>
        <time>2015-06-19T09:31:41Z</time>
      </trkpt>
      <trkpt lat="44.73797" lon="5.37518">
        <ele>596.64</ele>
        <time>2015-06-19T09:32:01Z</time>
      </trkpt>
      <trkpt lat="44.73782" lon="5.37531">
        <ele>600</ele>
        <time>2015-06-19T09:32:21Z</time>
      </trkpt>
      <trkpt lat="44.7377" lon="5.37541">
        <ele>603.36</ele>
        <time>2015-06-19T09:32:41Z</time>
      </trkpt>
      <trkpt lat="44.73769" lon="5.37541">
        <ele>603.85</ele>
        <time>2015-06-19T09:33:01Z</time>
      </trkpt>
      <trkpt lat="44.73771" lon="5.37521">
        <ele>607.69</ele>
        <time>2015-06-19T09:33:21Z</time>
      </trkpt>
      <trkpt lat="44.73776" lon="5.375">
        <ele>609.13</ele>
        <time>2015-06-19T09:33:41Z</time>
      </trkpt>
      <trkpt lat="44.73779" lon="5.37487">
        <ele>610.57</ele>
        <time>2015-06-19T09:34:01Z</time>
      </trkpt>
      <trkpt lat="44.73782" lon="5.37478">
        <ele>611.06</ele>
        <time>2015-06-19T09:34:21Z</time>
      </trkpt>
      <trkpt lat="44.73785" lon="5.3745">
        <ele>612.98</ele>
        <time>2015-06-19T09:34:41Z</time>
      </trkpt>
      <trkpt lat="44.73788" lon="5.37431">
        <ele>615.38</ele>
        <time>2015-06-19T09:35:01Z</time>
      </trkpt>
      <trkpt lat="44.7379" lon="5.37413">
        <ele>616.82</ele>
        <time>2015-06-19T09:35:21Z</time>
      </trkpt>
      <trkpt lat="44.73793" lon="5.3739">
        <ele>618.26</ele>
        <time>2015-06-19T09:35:41Z</time>
      </trkpt>
      <trkpt lat="44.73794" lon="5.37369">
        <ele>618.26</ele>
        <time>2015-06-19T09:36:01Z</time>
      </trkpt>
      <trkpt lat="44.73795" lon="5.37349">
        <ele>620.19</ele>
        <time>2015-06-19T09:36:21Z</time>
      </trkpt>
      <trkpt lat="44.73786" lon="5.37334">
        <ele>621.63</ele>
        <time>2015-06-19T09:36:41Z</time>
      </trkpt>
      <trkpt lat="44.73783" lon="5.37309">
        <ele>622.59</ele>
        <time>2015-06-19T09:37:01Z</time>
      </trkpt>
      <trkpt lat="44.73779" lon="5.3729">
        <ele>626.44</ele>
        <time>2015-06-19T09:37:21Z</time>
      </trkpt>
      <trkpt lat="44.73779" lon="5.37289">
        <ele>628.84</ele>
        <time>2015-06-19T09:37:41Z</time>
      </trkpt>
      <trkpt lat="44.7378" lon="5.37288">
        <ele>626.44</ele>
        <time>2015-06-19T09:38:01Z</time>
      </trkpt>
      <trkpt lat="44.7378" lon="5.37285">
        <ele>627.88</ele>
        <time>2015-06-19T09:38:21Z</time>
      </trkpt>
      <trkpt lat="44.73781" lon="5.37274">
        <ele>629.32</ele>
        <time>2015-06-19T09:38:41Z</time>
      </trkpt>
      <trkpt lat="44.73773" lon="5.37258">
        <ele>630.76</ele>
        <time>2015-06-19T09:39:01Z</time>
      </trkpt>
      <trkpt lat="44.73761" lon="5.3724">
        <ele>630.76</ele>
        <time>2015-06-19T09:39:21Z</time>
      </trkpt>
      <trkpt lat="44.73749" lon="5.37211">
        <ele>633.17</ele>
        <time>2015-06-19T09:39:41Z</time>
      </trkpt>
      <trkpt lat="44.73745" lon="5.37188">
        <ele>635.57</ele>
        <time>2015-06-19T09:40:01Z</time>
      </trkpt>
      <trkpt lat="44.73743" lon="5.37169">
        <ele>637.97</ele>
        <time>2015-06-19T09:40:21Z</time>
      </trkpt>
      <trkpt lat="44.73738" lon="5.37147">
        <ele>640.38</ele>
        <time>2015-06-19T09:40:41Z</time>
      </trkpt>
      <trkpt lat="44.73735" lon="5.3713">
        <ele>640.86</ele>
        <time>2015-06-19T09:41:01Z</time>
      </trkpt>
      <trkpt lat="44.73733" lon="5.37127">
        <ele>641.34</ele>
        <time>2015-06-19T09:41:21Z</time>
      </trkpt>
      <trkpt lat="44.73733" lon="5.37127">
        <ele>639.89</ele>
        <time>2015-06-19T09:41:41Z</time>
      </trkpt>
      <trkpt lat="44.73733" lon="5.37126">
        <ele>640.38</ele>
        <time>2015-06-19T09:42:01Z</time>
      </trkpt>
      <trkpt lat="44.73733" lon="5.37126">
        <ele>641.82</ele>
        <time>2015-06-19T09:42:21Z</time>
      </trkpt>
      <trkpt lat="44.73731" lon="5.37126">
        <ele>641.34</ele>
        <time>2015-06-19T09:42:41Z</time>
      </trkpt>
      <trkpt lat="44.73731" lon="5.37126">
        <ele>641.34</ele>
        <time>2015-06-19T09:43:01Z</time>
      </trkpt>
      <trkpt lat="44.73732" lon="5.3712">
        <ele>641.34</ele>
        <time>2015-06-19T09:43:21Z</time>
      </trkpt>
      <trkpt lat="44.73732" lon="5.3712">
        <ele>641.34</ele>
        <time>2015-06-19T09:43:41Z</time>
      </trkpt>
      <trkpt lat="44.73723" lon="5.37111">
        <ele>642.3</ele>
        <time>2015-06-19T09:44:01Z</time>
      </trkpt>
      <trkpt lat="44.73717" lon="5.37083">
        <ele>644.22</ele>
        <time>2015-06-19T09:44:21Z</time>
      </trkpt>
      <trkpt lat="44.73715" lon="5.37055">
        <ele>644.22</ele>
        <time>2015-06-19T09:44:41Z</time>
      </trkpt>
      <trkpt lat="44.73712" lon="5.37027">
        <ele>646.14</ele>
        <time>2015-06-19T09:45:01Z</time>
      </trkpt>
      <trkpt lat="44.73708" lon="5.37002">
        <ele>649.03</ele>
        <time>2015-06-19T09:45:21Z</time>
      </trkpt>
      <trkpt lat="44.73705" lon="5.36978">
        <ele>650.95</ele>
        <time>2015-06-19T09:45:41Z</time>
      </trkpt>
      <trkpt lat="44.73692" lon="5.36954">
        <ele>653.83</ele>
        <time>2015-06-19T09:46:01Z</time>
      </trkpt>
      <trkpt lat="44.7368" lon="5.36942">
        <ele>656.72</ele>
        <time>2015-06-19T09:46:21Z</time>
      </trkpt>
      <trkpt lat="44.73663" lon="5.36936">
        <ele>657.2</ele>
        <time>2015-06-19T09:46:41Z</time>
      </trkpt>
      <trkpt lat="44.73645" lon="5.36927">
        <ele>659.12</ele>
        <time>2015-06-19T09:47:01Z</time>
      </trkpt>
      <trkpt lat="44.7363" lon="5.36928">
        <ele>661.04</ele>
        <time>2015-06-19T09:47:21Z</time>
      </trkpt>
      <trkpt lat="44.73608" lon="5.36928">
        <ele>662.97</ele>
        <time>2015-06-19T09:47:41Z</time>
      </trkpt>
      <trkpt lat="44.73591" lon="5.36932">
        <ele>664.41</ele>
        <time>2015-06-19T09:48:01Z</time>
      </trkpt>
      <trkpt lat="44.73571" lon="5.36934">
        <ele>665.85</ele>
        <time>2015-06-19T09:48:21Z</time>
      </trkpt>
      <trkpt lat="44.7355" lon="5.36934">
        <ele>668.25</ele>
        <time>2015-06-19T09:48:41Z</time>
      </trkpt>
      <trkpt lat="44.73534" lon="5.36937">
        <ele>669.22</ele>
        <time>2015-06-19T09:49:01Z</time>
      </trkpt>
      <trkpt lat="44.73514" lon="5.36931">
        <ele>669.7</ele>
        <time>2015-06-19T09:49:21Z</time>
      </trkpt>
      <trkpt lat="44.73493" lon="5.36924">
        <ele>670.66</ele>
        <time>2015-06-19T09:49:41Z</time>
      </trkpt>
      <trkpt lat="44.73476" lon="5.36917">
        <ele>673.06</ele>
        <time>2015-06-19T09:50:01Z</time>
      </trkpt>
      <trkpt lat="44.73458" lon="5.36914">
        <ele>674.98</ele>
        <time>2015-06-19T09:50:21Z</time>
      </trkpt>
      <trkpt lat="44.73454" lon="5.36909">
        <ele>678.83</ele>
        <time>2015-06-19T09:50:41Z</time>
      </trkpt>
      <trkpt lat="44.73441" lon="5.36904">
        <ele>678.35</ele>
        <time>2015-06-19T09:51:01Z</time>
      </trkpt>
      <trkpt lat="44.73443" lon="5.36903">
        <ele>678.35</ele>
        <time>2015-06-19T09:51:21Z</time>
      </trkpt>
      <trkpt lat="44.73453" lon="5.36896">
        <ele>676.42</ele>
        <time>2015-06-19T09:51:41Z</time>
      </trkpt>
      <trkpt lat="44.73467" lon="5.36902">
        <ele>676.91</ele>
        <time>2015-06-19T09:52:01Z</time>
      </trkpt>
      <trkpt lat="44.73488" lon="5.36921">
        <ele>677.87</ele>
        <time>2015-06-19T09:52:21Z</time>
      </trkpt>
      <trkpt lat="44.73508" lon="5.36938">
        <ele>678.35</ele>
        <time>2015-06-19T09:52:41Z</time>
      </trkpt>
      <trkpt lat="44.73523" lon="5.36952">
        <ele>681.23</ele>
        <time>2015-06-19T09:53:01Z</time>
      </trkpt>
      <trkpt lat="44.7354" lon="5.36966">
        <ele>684.12</ele>
        <time>2015-06-19T09:53:21Z</time>
      </trkpt>
      <trkpt lat="44.7354" lon="5.36987">
        <ele>686.04</ele>
        <time>2015-06-19T09:53:41Z</time>
      </trkpt>
      <trkpt lat="44.73523" lon="5.36984">
        <ele>688.44</ele>
        <time>2015-06-19T09:54:01Z</time>
      </trkpt>
      <trkpt lat="44.73505" lon="5.36975">
        <ele>687.96</ele>
        <time>2015-06-19T09:54:21Z</time>
      </trkpt>
      <trkpt lat="44.73489" lon="5.36972">
        <ele>691.81</ele>
        <time>2015-06-19T09:54:41Z</time>
      </trkpt>
      <trkpt lat="44.73471" lon="5.36965">
        <ele>694.69</ele>
        <time>2015-06-19T09:55:01Z</time>
      </trkpt>
      <trkpt lat="44.73453" lon="5.36961">
        <ele>697.57</ele>
        <time>2015-06-19T09:55:21Z</time>
      </trkpt>
      <trkpt lat="44.73434" lon="5.36959">
        <ele>698.53</ele>
        <time>2015-06-19T09:55:41Z</time>
      </trkpt>
      <trkpt lat="44.73414" lon="5.36956">
        <ele>701.42</ele>
        <time>2015-06-19T09:56:01Z</time>
      </trkpt>
      <trkpt lat="44.73397" lon="5.36952">
        <ele>704.3</ele>
        <time>2015-06-19T09:56:21Z</time>
      </trkpt>
      <trkpt lat="44.7338" lon="5.36957">
        <ele>705.75</ele>
        <time>2015-06-19T09:56:41Z</time>
      </trkpt>
      <trkpt lat="44.73363" lon="5.36967">
        <ele>708.15</ele>
        <time>2015-06-19T09:57:01Z</time>
      </trkpt>
      <trkpt lat="44.73343" lon="5.36954">
        <ele>710.55</ele>
        <time>2015-06-19T09:57:21Z</time>
      </trkpt>
      <trkpt lat="44.73339" lon="5.36922">
        <ele>711.03</ele>
        <time>2015-06-19T09:57:41Z</time>
      </trkpt>
      <trkpt lat="44.73342" lon="5.36919">
        <ele>711.03</ele>
        <time>2015-06-19T09:58:01Z</time>
      </trkpt>
      <trkpt lat="44.73344" lon="5.36907">
        <ele>711.99</ele>
        <time>2015-06-19T09:58:21Z</time>
      </trkpt>
      <trkpt lat="44.73353" lon="5.36879">
        <ele>713.92</ele>
        <time>2015-06-19T09:58:41Z</time>
      </trkpt>
      <trkpt lat="44.73365" lon="5.3685">
        <ele>714.4</ele>
        <time>2015-06-19T09:59:01Z</time>
      </trkpt>
      <trkpt lat="44.7337" lon="5.36816">
        <ele>717.76</ele>
        <time>2015-06-19T09:59:21Z</time>
      </trkpt>
      <trkpt lat="44.73383" lon="5.36793">
        <ele>718.72</ele>
        <time>2015-06-19T09:59:41Z</time>
      </trkpt>
      <trkpt lat="44.73403" lon="5.36785">
        <ele>721.13</ele>
        <time>2015-06-19T10:00:01Z</time>
      </trkpt>
      <trkpt lat="44.73417" lon="5.36775">
        <ele>722.57</ele>
        <time>2015-06-19T10:00:21Z</time>
      </trkpt>
      <trkpt lat="44.73433" lon="5.36759">
        <ele>724.49</ele>
        <time>2015-06-19T10:00:41Z</time>
      </trkpt>
      <trkpt lat="44.73451" lon="5.3674">
        <ele>727.86</ele>
        <time>2015-06-19T10:01:01Z</time>
      </trkpt>
      <trkpt lat="44.73466" lon="5.36732">
        <ele>727.86</ele>
        <time>2015-06-19T10:01:21Z</time>
      </trkpt>
      <trkpt lat="44.73479" lon="5.36716">
        <ele>730.74</ele>
        <time>2015-06-19T10:01:41Z</time>
      </trkpt>
      <trkpt lat="44.73494" lon="5.36694">
        <ele>730.74</ele>
        <time>2015-06-19T10:02:01Z</time>
      </trkpt>
      <trkpt lat="44.73505" lon="5.36674">
        <ele>733.14</ele>
        <time>2015-06-19T10:02:21Z</time>
      </trkpt>
      <trkpt lat="44.73515" lon="5.36647">
        <ele>736.51</ele>
        <time>2015-06-19T10:02:41Z</time>
      </trkpt>
      <trkpt lat="44.73525" lon="5.3662">
        <ele>737.95</ele>
        <time>2015-06-19T10:03:01Z</time>
      </trkpt>
      <trkpt lat="44.73533" lon="5.36593">
        <ele>740.83</ele>
        <time>2015-06-19T10:03:21Z</time>
      </trkpt>
      <trkpt lat="44.73544" lon="5.36565">
        <ele>742.28</ele>
        <time>2015-06-19T10:03:41Z</time>
      </trkpt>
      <trkpt lat="44.73551" lon="5.36539">
        <ele>745.16</ele>
        <time>2015-06-19T10:04:01Z</time>
      </trkpt>
      <trkpt lat="44.73551" lon="5.36508">
        <ele>746.6</ele>
        <time>2015-06-19T10:04:21Z</time>
      </trkpt>
      <trkpt lat="44.7356" lon="5.36479">
        <ele>748.52</ele>
        <time>2015-06-19T10:04:41Z</time>
      </trkpt>
      <trkpt lat="44.73569" lon="5.3645">
        <ele>749.49</ele>
        <time>2015-06-19T10:05:01Z</time>
      </trkpt>
      <trkpt lat="44.73561" lon="5.36454">
        <ele>751.89</ele>
        <time>2015-06-19T10:05:21Z</time>
      </trkpt>
      <trkpt lat="44.73554" lon="5.36482">
        <ele>752.85</ele>
        <time>2015-06-19T10:05:41Z</time>
      </trkpt>
      <trkpt lat="44.73543" lon="5.3651">
        <ele>754.77</ele>
        <time>2015-06-19T10:06:01Z</time>
      </trkpt>
      <trkpt lat="44.73535" lon="5.36541">
        <ele>757.18</ele>
        <time>2015-06-19T10:06:21Z</time>
      </trkpt>
      <trkpt lat="44.73523" lon="5.36569">
        <ele>758.14</ele>
        <time>2015-06-19T10:06:41Z</time>
      </trkpt>
      <trkpt lat="44.73507" lon="5.36593">
        <ele>759.58</ele>
        <time>2015-06-19T10:07:01Z</time>
      </trkpt>
      <trkpt lat="44.73493" lon="5.36617">
        <ele>761.5</ele>
        <time>2015-06-19T10:07:21Z</time>
      </trkpt>
      <trkpt lat="44.73475" lon="5.36639">
        <ele>763.9</ele>
        <time>2015-06-19T10:07:41Z</time>
      </trkpt>
      <trkpt lat="44.73456" lon="5.36656">
        <ele>765.35</ele>
        <time>2015-06-19T10:08:01Z</time>
      </trkpt>
      <trkpt lat="44.73438" lon="5.36668">
        <ele>766.79</ele>
        <time>2015-06-19T10:08:21Z</time>
      </trkpt>
      <trkpt lat="44.73415" lon="5.36674">
        <ele>767.75</ele>
        <time>2015-06-19T10:08:41Z</time>
      </trkpt>
      <trkpt lat="44.73396" lon="5.36689">
        <ele>769.19</ele>
        <time>2015-06-19T10:09:01Z</time>
      </trkpt>
      <trkpt lat="44.73374" lon="5.36703">
        <ele>770.63</ele>
        <time>2015-06-19T10:09:21Z</time>
      </trkpt>
      <trkpt lat="44.73354" lon="5.36713">
        <ele>773.04</ele>
        <time>2015-06-19T10:09:41Z</time>
      </trkpt>
      <trkpt lat="44.7333" lon="5.36715">
        <ele>775.44</ele>
        <time>2015-06-19T10:10:01Z</time>
      </trkpt>
      <trkpt lat="44.73315" lon="5.36738">
        <ele>776.4</ele>
        <time>2015-06-19T10:10:21Z</time>
      </trkpt>
      <trkpt lat="44.73305" lon="5.36762">
        <ele>779.29</ele>
        <time>2015-06-19T10:10:41Z</time>
      </trkpt>
      <trkpt lat="44.733" lon="5.36766">
        <ele>779.29</ele>
        <time>2015-06-19T10:11:01Z</time>
      </trkpt>
      <trkpt lat="44.73296" lon="5.36766">
        <ele>779.29</ele>
        <time>2015-06-19T10:11:21Z</time>
      </trkpt>
      <trkpt lat="44.73296" lon="5.36766">
        <ele>778.81</ele>
        <time>2015-06-19T10:11:41Z</time>
      </trkpt>
      <trkpt lat="44.73296" lon="5.36765">
        <ele>778.81</ele>
        <time>2015-06-19T10:12:01Z</time>
      </trkpt>
      <trkpt lat="44.73296" lon="5.36765">
        <ele>779.29</ele>
        <time>2015-06-19T10:12:21Z</time>
      </trkpt>
      <trkpt lat="44.73296" lon="5.36765">
        <ele>778.32</ele>
        <time>2015-06-19T10:12:41Z</time>
      </trkpt>
      <trkpt lat="44.73294" lon="5.36769">
        <ele>778.81</ele>
        <time>2015-06-19T10:13:01Z</time>
      </trkpt>
      <trkpt lat="44.73288" lon="5.36774">
        <ele>779.77</ele>
        <time>2015-06-19T10:13:21Z</time>
      </trkpt>
      <trkpt lat="44.73276" lon="5.3678">
        <ele>781.69</ele>
        <time>2015-06-19T10:13:41Z</time>
      </trkpt>
      <trkpt lat="44.73268" lon="5.36793">
        <ele>783.13</ele>
        <time>2015-06-19T10:14:01Z</time>
      </trkpt>
      <trkpt lat="44.73268" lon="5.36793">
        <ele>782.17</ele>
        <time>2015-06-19T10:14:21Z</time>
      </trkpt>
      <trkpt lat="44.73264" lon="5.368">
        <ele>782.17</ele>
        <time>2015-06-19T10:14:41Z</time>
      </trkpt>
      <trkpt lat="44.73247" lon="5.36807">
        <ele>783.61</ele>
        <time>2015-06-19T10:15:01Z</time>
      </trkpt>
      <trkpt lat="44.73235" lon="5.36824">
        <ele>786.5</ele>
        <time>2015-06-19T10:15:21Z</time>
      </trkpt>
      <trkpt lat="44.73219" lon="5.36836">
        <ele>788.9</ele>
        <time>2015-06-19T10:15:41Z</time>
      </trkpt>
      <trkpt lat="44.73205" lon="5.36846">
        <ele>789.38</ele>
        <time>2015-06-19T10:16:01Z</time>
      </trkpt>
      <trkpt lat="44.73198" lon="5.36864">
        <ele>792.74</ele>
        <time>2015-06-19T10:16:21Z</time>
      </trkpt>
      <trkpt lat="44.73183" lon="5.36875">
        <ele>795.15</ele>
        <time>2015-06-19T10:16:41Z</time>
      </trkpt>
      <trkpt lat="44.7317" lon="5.36886">
        <ele>798.51</ele>
        <time>2015-06-19T10:17:01Z</time>
      </trkpt>
      <trkpt lat="44.7316" lon="5.36901">
        <ele>798.99</ele>
        <time>2015-06-19T10:17:21Z</time>
      </trkpt>
      <trkpt lat="44.7315" lon="5.36918">
        <ele>800.92</ele>
        <time>2015-06-19T10:17:41Z</time>
      </trkpt>
      <trkpt lat="44.73139" lon="5.36933">
        <ele>802.84</ele>
        <time>2015-06-19T10:18:01Z</time>
      </trkpt>
      <trkpt lat="44.73128" lon="5.36947">
        <ele>805.24</ele>
        <time>2015-06-19T10:18:21Z</time>
      </trkpt>
      <trkpt lat="44.73122" lon="5.36951">
        <ele>806.68</ele>
        <time>2015-06-19T10:18:41Z</time>
      </trkpt>
      <trkpt lat="44.73109" lon="5.36975">
        <ele>807.64</ele>
        <time>2015-06-19T10:19:01Z</time>
      </trkpt>
      <trkpt lat="44.73096" lon="5.36993">
        <ele>810.05</ele>
        <time>2015-06-19T10:19:21Z</time>
      </trkpt>
      <trkpt lat="44.73088" lon="5.37011">
        <ele>813.41</ele>
        <time>2015-06-19T10:19:41Z</time>
      </trkpt>
      <trkpt lat="44.73085" lon="5.37019">
        <ele>815.82</ele>
        <time>2015-06-19T10:20:01Z</time>
      </trkpt>
      <trkpt lat="44.73074" lon="5.37006">
        <ele>816.3</ele>
        <time>2015-06-19T10:20:21Z</time>
      </trkpt>
      <trkpt lat="44.73073" lon="5.37002">
        <ele>818.7</ele>
        <time>2015-06-19T10:20:41Z</time>
      </trkpt>
      <trkpt lat="44.73076" lon="5.36969">
        <ele>822.55</ele>
        <time>2015-06-19T10:21:01Z</time>
      </trkpt>
      <trkpt lat="44.73081" lon="5.36943">
        <ele>825.43</ele>
        <time>2015-06-19T10:21:21Z</time>
      </trkpt>
      <trkpt lat="44.73089" lon="5.36919">
        <ele>826.39</ele>
        <time>2015-06-19T10:21:41Z</time>
      </trkpt>
      <trkpt lat="44.73086" lon="5.36926">
        <ele>828.31</ele>
        <time>2015-06-19T10:22:01Z</time>
      </trkpt>
      <trkpt lat="44.73077" lon="5.3694">
        <ele>829.76</ele>
        <time>2015-06-19T10:22:21Z</time>
      </trkpt>
      <trkpt lat="44.73068" lon="5.36958">
        <ele>831.68</ele>
        <time>2015-06-19T10:22:41Z</time>
      </trkpt>
      <trkpt lat="44.73065" lon="5.36964">
        <ele>833.6</ele>
        <time>2015-06-19T10:23:01Z</time>
      </trkpt>
      <trkpt lat="44.73056" lon="5.36987">
        <ele>835.52</ele>
        <time>2015-06-19T10:23:21Z</time>
      </trkpt>
      <trkpt lat="44.73048" lon="5.37006">
        <ele>837.93</ele>
        <time>2015-06-19T10:23:41Z</time>
      </trkpt>
      <trkpt lat="44.73034" lon="5.37032">
        <ele>841.29</ele>
        <time>2015-06-19T10:24:01Z</time>
      </trkpt>
      <trkpt lat="44.73028" lon="5.37048">
        <ele>841.77</ele>
        <time>2015-06-19T10:24:21Z</time>
      </trkpt>
      <trkpt lat="44.73013" lon="5.37043">
        <ele>844.18</ele>
        <time>2015-06-19T10:24:41Z</time>
      </trkpt>
      <trkpt lat="44.73012" lon="5.3702">
        <ele>847.06</ele>
        <time>2015-06-19T10:25:01Z</time>
      </trkpt>
      <trkpt lat="44.73011" lon="5.37008">
        <ele>845.62</ele>
        <time>2015-06-19T10:25:21Z</time>
      </trkpt>
      <trkpt lat="44.73009" lon="5.3699">
        <ele>848.5</ele>
        <time>2015-06-19T10:25:41Z</time>
      </trkpt>
      <trkpt lat="44.73012" lon="5.36972">
        <ele>850.42</ele>
        <time>2015-06-19T10:26:01Z</time>
      </trkpt>
      <trkpt lat="44.73022" lon="5.36937">
        <ele>851.87</ele>
        <time>2015-06-19T10:26:21Z</time>
      </trkpt>
      <trkpt lat="44.73032" lon="5.36912">
        <ele>854.27</ele>
        <time>2015-06-19T10:26:41Z</time>
      </trkpt>
      <trkpt lat="44.73027" lon="5.36931">
        <ele>855.71</ele>
        <time>2015-06-19T10:27:01Z</time>
      </trkpt>
      <trkpt lat="44.73017" lon="5.3695">
        <ele>857.63</ele>
        <time>2015-06-19T10:27:21Z</time>
      </trkpt>
      <trkpt lat="44.73006" lon="5.36967">
        <ele>861</ele>
        <time>2015-06-19T10:27:41Z</time>
      </trkpt>
      <trkpt lat="44.72991" lon="5.3699">
        <ele>863.4</ele>
        <time>2015-06-19T10:28:01Z</time>
      </trkpt>
      <trkpt lat="44.72976" lon="5.37007">
        <ele>865.8</ele>
        <time>2015-06-19T10:28:21Z</time>
      </trkpt>
      <trkpt lat="44.72966" lon="5.37015">
        <ele>867.25</ele>
        <time>2015-06-19T10:28:41Z</time>
      </trkpt>
      <trkpt lat="44.7295" lon="5.37026">
        <ele>869.17</ele>
        <time>2015-06-19T10:29:01Z</time>
      </trkpt>
      <trkpt lat="44.72935" lon="5.37039">
        <ele>870.61</ele>
        <time>2015-06-19T10:29:21Z</time>
      </trkpt>
      <trkpt lat="44.72922" lon="5.37052">
        <ele>873.98</ele>
        <time>2015-06-19T10:29:41Z</time>
      </trkpt>
      <trkpt lat="44.72909" lon="5.37068">
        <ele>875.9</ele>
        <time>2015-06-19T10:30:01Z</time>
      </trkpt>
      <trkpt lat="44.72896" lon="5.37097">
        <ele>876.86</ele>
        <time>2015-06-19T10:30:21Z</time>
      </trkpt>
      <trkpt lat="44.72888" lon="5.37115">
        <ele>878.3</ele>
        <time>2015-06-19T10:30:41Z</time>
      </trkpt>
      <trkpt lat="44.72872" lon="5.37118">
        <ele>880.22</ele>
        <time>2015-06-19T10:31:01Z</time>
      </trkpt>
      <trkpt lat="44.72869" lon="5.37091">
        <ele>882.63</ele>
        <time>2015-06-19T10:31:21Z</time>
      </trkpt>
      <trkpt lat="44.72868" lon="5.37065">
        <ele>885.03</ele>
        <time>2015-06-19T10:31:41Z</time>
      </trkpt>
      <trkpt lat="44.72876" lon="5.37035">
        <ele>887.91</ele>
        <time>2015-06-19T10:32:01Z</time>
      </trkpt>
      <trkpt lat="44.72887" lon="5.3701">
        <ele>889.84</ele>
        <time>2015-06-19T10:32:21Z</time>
      </trkpt>
      <trkpt lat="44.72895" lon="5.36987">
        <ele>892.72</ele>
        <time>2015-06-19T10:32:41Z</time>
      </trkpt>
      <trkpt lat="44.72908" lon="5.36974">
        <ele>893.68</ele>
        <time>2015-06-19T10:33:01Z</time>
      </trkpt>
      <trkpt lat="44.72926" lon="5.36944">
        <ele>896.09</ele>
        <time>2015-06-19T10:33:21Z</time>
      </trkpt>
      <trkpt lat="44.72941" lon="5.36923">
        <ele>898.01</ele>
        <time>2015-06-19T10:33:41Z</time>
      </trkpt>
      <trkpt lat="44.72952" lon="5.36897">
        <ele>899.45</ele>
        <time>2015-06-19T10:34:01Z</time>
      </trkpt>
      <trkpt lat="44.72964" lon="5.36874">
        <ele>901.85</ele>
        <time>2015-06-19T10:34:21Z</time>
      </trkpt>
      <trkpt lat="44.72974" lon="5.36857">
        <ele>903.3</ele>
        <time>2015-06-19T10:34:41Z</time>
      </trkpt>
      <trkpt lat="44.72965" lon="5.36866">
        <ele>905.22</ele>
        <time>2015-06-19T10:35:01Z</time>
      </trkpt>
      <trkpt lat="44.72947" lon="5.36884">
        <ele>909.54</ele>
        <time>2015-06-19T10:35:21Z</time>
      </trkpt>
      <trkpt lat="44.72927" lon="5.36899">
        <ele>911.95</ele>
        <time>2015-06-19T10:35:41Z</time>
      </trkpt>
      <trkpt lat="44.72912" lon="5.36905">
        <ele>914.35</ele>
        <time>2015-06-19T10:36:01Z</time>
      </trkpt>
      <trkpt lat="44.72897" lon="5.36907">
        <ele>915.79</ele>
        <time>2015-06-19T10:36:21Z</time>
      </trkpt>
      <trkpt lat="44.72881" lon="5.3691">
        <ele>917.72</ele>
        <time>2015-06-19T10:36:41Z</time>
      </trkpt>
      <trkpt lat="44.72861" lon="5.36916">
        <ele>918.68</ele>
        <time>2015-06-19T10:37:01Z</time>
      </trkpt>
      <trkpt lat="44.72838" lon="5.36922">
        <ele>921.08</ele>
        <time>2015-06-19T10:37:21Z</time>
      </trkpt>
      <trkpt lat="44.72813" lon="5.3693">
        <ele>924.45</ele>
        <time>2015-06-19T10:37:41Z</time>
      </trkpt>
      <trkpt lat="44.72786" lon="5.36934">
        <ele>927.33</ele>
        <time>2015-06-19T10:38:01Z</time>
      </trkpt>
      <trkpt lat="44.72782" lon="5.36931">
        <ele>926.37</ele>
        <time>2015-06-19T10:38:21Z</time>
      </trkpt>
      <trkpt lat="44.72782" lon="5.36931">
        <ele>925.89</ele>
        <time>2015-06-19T10:38:41Z</time>
      </trkpt>
      <trkpt lat="44.7277" lon="5.36924">
        <ele>927.33</ele>
        <time>2015-06-19T10:39:01Z</time>
      </trkpt>
      <trkpt lat="44.72766" lon="5.36906">
        <ele>928.77</ele>
        <time>2015-06-19T10:39:21Z</time>
      </trkpt>
      <trkpt lat="44.72766" lon="5.36906">
        <ele>928.77</ele>
        <time>2015-06-19T10:39:41Z</time>
      </trkpt>
      <trkpt lat="44.72765" lon="5.36906">
        <ele>928.77</ele>
        <time>2015-06-19T10:40:01Z</time>
      </trkpt>
      <trkpt lat="44.72766" lon="5.36914">
        <ele>928.29</ele>
        <time>2015-06-19T10:40:21Z</time>
      </trkpt>
      <trkpt lat="44.7277" lon="5.36925">
        <ele>927.33</ele>
        <time>2015-06-19T10:40:41Z</time>
      </trkpt>
      <trkpt lat="44.72776" lon="5.3693">
        <ele>925.89</ele>
        <time>2015-06-19T10:41:01Z</time>
      </trkpt>
      <trkpt lat="44.72776" lon="5.3693">
        <ele>925.89</ele>
        <time>2015-06-19T10:41:21Z</time>
      </trkpt>
      <trkpt lat="44.72776" lon="5.36931">
        <ele>928.29</ele>
        <time>2015-06-19T10:41:41Z</time>
      </trkpt>
      <trkpt lat="44.72776" lon="5.36931">
        <ele>926.85</ele>
        <time>2015-06-19T10:42:01Z</time>
      </trkpt>
      <trkpt lat="44.72777" lon="5.36933">
        <ele>926.37</ele>
        <time>2015-06-19T10:42:21Z</time>
      </trkpt>
      <trkpt lat="44.72777" lon="5.36933">
        <ele>925.41</ele>
        <time>2015-06-19T10:42:41Z</time>
      </trkpt>
      <trkpt lat="44.72776" lon="5.36933">
        <ele>925.89</ele>
        <time>2015-06-19T10:43:01Z</time>
      </trkpt>
      <trkpt lat="44.72776" lon="5.36934">
        <ele>926.37</ele>
        <time>2015-06-19T10:43:21Z</time>
      </trkpt>
      <trkpt lat="44.72776" lon="5.36934">
        <ele>925.89</ele>
        <time>2015-06-19T10:43:41Z</time>
      </trkpt>
      <trkpt lat="44.72776" lon="5.36934">
        <ele>926.85</ele>
        <time>2015-06-19T10:44:01Z</time>
      </trkpt>
      <trkpt lat="44.72776" lon="5.36935">
        <ele>926.85</ele>
        <time>2015-06-19T10:44:21Z</time>
      </trkpt>
      <trkpt lat="44.72776" lon="5.36935">
        <ele>926.85</ele>
        <time>2015-06-19T10:44:41Z</time>
      </trkpt>
      <trkpt lat="44.72776" lon="5.36935">
        <ele>924.93</ele>
        <time>2015-06-19T10:45:01Z</time>
      </trkpt>
      <trkpt lat="44.72776" lon="5.36935">
        <ele>924.93</ele>
        <time>2015-06-19T10:45:21Z</time>
      </trkpt>
      <trkpt lat="44.72776" lon="5.36935">
        <ele>925.41</ele>
        <time>2015-06-19T10:45:41Z</time>
      </trkpt>
      <trkpt lat="44.72776" lon="5.36935">
        <ele>924.93</ele>
        <time>2015-06-19T10:46:01Z</time>
      </trkpt>
      <trkpt lat="44.72777" lon="5.36935">
        <ele>926.37</ele>
        <time>2015-06-19T10:46:21Z</time>
      </trkpt>
      <trkpt lat="44.72777" lon="5.36935">
        <ele>927.81</ele>
        <time>2015-06-19T10:46:41Z</time>
      </trkpt>
      <trkpt lat="44.72777" lon="5.36935">
        <ele>925.41</ele>
        <time>2015-06-19T10:47:01Z</time>
      </trkpt>
      <trkpt lat="44.72777" lon="5.36935">
        <ele>927.33</ele>
        <time>2015-06-19T10:47:21Z</time>
      </trkpt>
      <trkpt lat="44.72777" lon="5.36935">
        <ele>925.89</ele>
        <time>2015-06-19T10:47:41Z</time>
      </trkpt>
      <trkpt lat="44.72777" lon="5.36935">
        <ele>924.45</ele>
        <time>2015-06-19T10:48:01Z</time>
      </trkpt>
      <trkpt lat="44.72777" lon="5.36934">
        <ele>924.93</ele>
        <time>2015-06-19T10:48:21Z</time>
      </trkpt>
      <trkpt lat="44.72777" lon="5.36934">
        <ele>923.96</ele>
        <time>2015-06-19T10:48:41Z</time>
      </trkpt>
      <trkpt lat="44.72778" lon="5.36934">
        <ele>926.37</ele>
        <time>2015-06-19T10:49:01Z</time>
      </trkpt>
      <trkpt lat="44.72778" lon="5.36934">
        <ele>925.41</ele>
        <time>2015-06-19T10:49:21Z</time>
      </trkpt>
      <trkpt lat="44.72778" lon="5.36934">
        <ele>926.37</ele>
        <time>2015-06-19T10:49:41Z</time>
      </trkpt>
      <trkpt lat="44.72778" lon="5.36934">
        <ele>924.93</ele>
        <time>2015-06-19T10:50:01Z</time>
      </trkpt>
      <trkpt lat="44.72777" lon="5.36934">
        <ele>924.45</ele>
        <time>2015-06-19T10:50:21Z</time>
      </trkpt>
      <trkpt lat="44.72777" lon="5.36934">
        <ele>923.96</ele>
        <time>2015-06-19T10:50:41Z</time>
      </trkpt>
      <trkpt lat="44.72777" lon="5.36934">
        <ele>924.45</ele>
        <time>2015-06-19T10:51:01Z</time>
      </trkpt>
      <trkpt lat="44.72777" lon="5.36934">
        <ele>924.45</ele>
        <time>2015-06-19T10:51:21Z</time>
      </trkpt>
      <trkpt lat="44.72776" lon="5.36935">
        <ele>924.45</ele>
        <time>2015-06-19T10:51:41Z</time>
      </trkpt>
      <trkpt lat="44.72776" lon="5.36935">
        <ele>924.45</ele>
        <time>2015-06-19T10:52:01Z</time>
      </trkpt>
      <trkpt lat="44.72769" lon="5.36926">
        <ele>926.85</ele>
        <time>2015-06-19T10:52:21Z</time>
      </trkpt>
      <trkpt lat="44.72761" lon="5.36904">
        <ele>926.85</ele>
        <time>2015-06-19T10:52:41Z</time>
      </trkpt>
      <trkpt lat="44.7275" lon="5.36892">
        <ele>931.17</ele>
        <time>2015-06-19T10:53:01Z</time>
      </trkpt>
      <trkpt lat="44.72739" lon="5.36869">
        <ele>932.62</ele>
        <time>2015-06-19T10:53:21Z</time>
      </trkpt>
      <trkpt lat="44.72731" lon="5.3685">
        <ele>933.1</ele>
        <time>2015-06-19T10:53:41Z</time>
      </trkpt>
      <trkpt lat="44.72716" lon="5.36827">
        <ele>936.94</ele>
        <time>2015-06-19T10:54:01Z</time>
      </trkpt>
      <trkpt lat="44.72706" lon="5.36802">
        <ele>939.35</ele>
        <time>2015-06-19T10:54:21Z</time>
      </trkpt>
      <trkpt lat="44.72692" lon="5.36778">
        <ele>939.83</ele>
        <time>2015-06-19T10:54:41Z</time>
      </trkpt>
      <trkpt lat="44.72676" lon="5.3676">
        <ele>942.71</ele>
        <time>2015-06-19T10:55:01Z</time>
      </trkpt>
      <trkpt lat="44.72657" lon="5.3675">
        <ele>945.59</ele>
        <time>2015-06-19T10:55:21Z</time>
      </trkpt>
      <trkpt lat="44.72661" lon="5.36735">
        <ele>945.59</ele>
        <time>2015-06-19T10:55:41Z</time>
      </trkpt>
      <trkpt lat="44.72675" lon="5.36715">
        <ele>946.56</ele>
        <time>2015-06-19T10:56:01Z</time>
      </trkpt>
      <trkpt lat="44.72695" lon="5.36694">
        <ele>948</ele>
        <time>2015-06-19T10:56:21Z</time>
      </trkpt>
      <trkpt lat="44.72715" lon="5.36679">
        <ele>950.88</ele>
        <time>2015-06-19T10:56:41Z</time>
      </trkpt>
      <trkpt lat="44.72735" lon="5.36666">
        <ele>951.84</ele>
        <time>2015-06-19T10:57:01Z</time>
      </trkpt>
      <trkpt lat="44.72745" lon="5.36659">
        <ele>951.84</ele>
        <time>2015-06-19T10:57:21Z</time>
      </trkpt>
      <trkpt lat="44.72745" lon="5.36659">
        <ele>952.32</ele>
        <time>2015-06-19T10:57:41Z</time>
      </trkpt>
      <trkpt lat="44.72745" lon="5.3666">
        <ele>951.84</ele>
        <time>2015-06-19T10:58:01Z</time>
      </trkpt>
      <trkpt lat="44.72745" lon="5.3666">
        <ele>950.88</ele>
        <time>2015-06-19T10:58:21Z</time>
      </trkpt>
      <trkpt lat="44.72744" lon="5.3666">
        <ele>952.32</ele>
        <time>2015-06-19T10:58:41Z</time>
      </trkpt>
      <trkpt lat="44.72744" lon="5.3666">
        <ele>951.84</ele>
        <time>2015-06-19T10:59:01Z</time>
      </trkpt>
      <trkpt lat="44.72744" lon="5.36661">
        <ele>952.8</ele>
        <time>2015-06-19T10:59:21Z</time>
      </trkpt>
      <trkpt lat="44.72744" lon="5.36661">
        <ele>952.8</ele>
        <time>2015-06-19T10:59:41Z</time>
      </trkpt>
      <trkpt lat="44.72745" lon="5.36661">
        <ele>951.84</ele>
        <time>2015-06-19T11:00:01Z</time>
      </trkpt>
      <trkpt lat="44.72745" lon="5.36661">
        <ele>951.84</ele>
        <time>2015-06-19T11:00:21Z</time>
      </trkpt>
      <trkpt lat="44.72744" lon="5.36662">
        <ele>952.8</ele>
        <time>2015-06-19T11:00:41Z</time>
      </trkpt>
      <trkpt lat="44.72744" lon="5.36662">
        <ele>951.36</ele>
        <time>2015-06-19T11:01:01Z</time>
      </trkpt>
      <trkpt lat="44.72744" lon="5.36662">
        <ele>949.44</ele>
        <time>2015-06-19T11:01:21Z</time>
      </trkpt>
      <trkpt lat="44.72744" lon="5.36662">
        <ele>951.84</ele>
        <time>2015-06-19T11:01:41Z</time>
      </trkpt>
      <trkpt lat="44.72744" lon="5.36662">
        <ele>951.84</ele>
        <time>2015-06-19T11:02:01Z</time>
      </trkpt>
      <trkpt lat="44.72744" lon="5.36662">
        <ele>952.32</ele>
        <time>2015-06-19T11:02:21Z</time>
      </trkpt>
      <trkpt lat="44.72744" lon="5.36662">
        <ele>951.36</ele>
        <time>2015-06-19T11:02:41Z</time>
      </trkpt>
      <trkpt lat="44.72744" lon="5.36662">
        <ele>952.8</ele>
        <time>2015-06-19T11:03:01Z</time>
      </trkpt>
      <trkpt lat="44.72745" lon="5.36662">
        <ele>951.84</ele>
        <time>2015-06-19T11:03:21Z</time>
      </trkpt>
      <trkpt lat="44.72745" lon="5.36662">
        <ele>951.36</ele>
        <time>2015-06-19T11:03:41Z</time>
      </trkpt>
      <trkpt lat="44.72745" lon="5.36662">
        <ele>950.88</ele>
        <time>2015-06-19T11:04:01Z</time>
      </trkpt>
      <trkpt lat="44.72745" lon="5.36662">
        <ele>950.4</ele>
        <time>2015-06-19T11:04:21Z</time>
      </trkpt>
      <trkpt lat="44.72745" lon="5.36662">
        <ele>950.4</ele>
        <time>2015-06-19T11:04:41Z</time>
      </trkpt>
      <trkpt lat="44.72745" lon="5.36663">
        <ele>952.32</ele>
        <time>2015-06-19T11:05:01Z</time>
      </trkpt>
      <trkpt lat="44.72745" lon="5.36663">
        <ele>951.36</ele>
        <time>2015-06-19T11:05:21Z</time>
      </trkpt>
      <trkpt lat="44.72745" lon="5.36663">
        <ele>950.88</ele>
        <time>2015-06-19T11:05:41Z</time>
      </trkpt>
      <trkpt lat="44.72745" lon="5.36663">
        <ele>950.88</ele>
        <time>2015-06-19T11:06:01Z</time>
      </trkpt>
      <trkpt lat="44.72745" lon="5.36663">
        <ele>949.44</ele>
        <time>2015-06-19T11:06:21Z</time>
      </trkpt>
      <trkpt lat="44.72745" lon="5.36663">
        <ele>949.92</ele>
        <time>2015-06-19T11:06:41Z</time>
      </trkpt>
      <trkpt lat="44.72745" lon="5.36663">
        <ele>951.84</ele>
        <time>2015-06-19T11:07:01Z</time>
      </trkpt>
      <trkpt lat="44.72745" lon="5.36663">
        <ele>951.36</ele>
        <time>2015-06-19T11:07:21Z</time>
      </trkpt>
      <trkpt lat="44.72756" lon="5.36654">
        <ele>951.36</ele>
        <time>2015-06-19T11:07:41Z</time>
      </trkpt>
      <trkpt lat="44.72773" lon="5.3664">
        <ele>952.8</ele>
        <time>2015-06-19T11:08:01Z</time>
      </trkpt>
      <trkpt lat="44.72788" lon="5.36622">
        <ele>952.8</ele>
        <time>2015-06-19T11:08:21Z</time>
      </trkpt>
      <trkpt lat="44.72803" lon="5.36601">
        <ele>955.21</ele>
        <time>2015-06-19T11:08:41Z</time>
      </trkpt>
      <trkpt lat="44.72811" lon="5.36576">
        <ele>956.65</ele>
        <time>2015-06-19T11:09:01Z</time>
      </trkpt>
      <trkpt lat="44.72819" lon="5.36552">
        <ele>957.13</ele>
        <time>2015-06-19T11:09:21Z</time>
      </trkpt>
      <trkpt lat="44.72819" lon="5.36521">
        <ele>958.57</ele>
        <time>2015-06-19T11:09:41Z</time>
      </trkpt>
      <trkpt lat="44.72822" lon="5.36489">
        <ele>960.49</ele>
        <time>2015-06-19T11:10:01Z</time>
      </trkpt>
      <trkpt lat="44.72825" lon="5.36459">
        <ele>961.46</ele>
        <time>2015-06-19T11:10:21Z</time>
      </trkpt>
      <trkpt lat="44.72821" lon="5.36428">
        <ele>962.9</ele>
        <time>2015-06-19T11:10:41Z</time>
      </trkpt>
      <trkpt lat="44.72817" lon="5.36399">
        <ele>965.3</ele>
        <time>2015-06-19T11:11:01Z</time>
      </trkpt>
      <trkpt lat="44.72809" lon="5.36372">
        <ele>964.34</ele>
        <time>2015-06-19T11:11:21Z</time>
      </trkpt>
      <trkpt lat="44.72814" lon="5.36368">
        <ele>964.34</ele>
        <time>2015-06-19T11:11:41Z</time>
      </trkpt>
      <trkpt lat="44.72825" lon="5.36347">
        <ele>964.82</ele>
        <time>2015-06-19T11:12:01Z</time>
      </trkpt>
      <trkpt lat="44.72836" lon="5.36358">
        <ele>962.9</ele>
        <time>2015-06-19T11:12:21Z</time>
      </trkpt>
      <trkpt lat="44.72855" lon="5.36365">
        <ele>961.94</ele>
        <time>2015-06-19T11:12:41Z</time>
      </trkpt>
      <trkpt lat="44.72874" lon="5.36366">
        <ele>960.01</ele>
        <time>2015-06-19T11:13:01Z</time>
      </trkpt>
      <trkpt lat="44.72893" lon="5.3637">
        <ele>960.49</ele>
        <time>2015-06-19T11:13:21Z</time>
      </trkpt>
      <trkpt lat="44.72912" lon="5.36366">
        <ele>959.05</ele>
        <time>2015-06-19T11:13:41Z</time>
      </trkpt>
      <trkpt lat="44.72932" lon="5.36362">
        <ele>958.57</ele>
        <time>2015-06-19T11:14:01Z</time>
      </trkpt>
      <trkpt lat="44.72954" lon="5.36364">
        <ele>957.61</ele>
        <time>2015-06-19T11:14:21Z</time>
      </trkpt>
      <trkpt lat="44.72977" lon="5.36362">
        <ele>956.17</ele>
        <time>2015-06-19T11:14:41Z</time>
      </trkpt>
      <trkpt lat="44.72993" lon="5.3636">
        <ele>956.65</ele>
        <time>2015-06-19T11:15:01Z</time>
      </trkpt>
      <trkpt lat="44.73012" lon="5.36358">
        <ele>954.73</ele>
        <time>2015-06-19T11:15:21Z</time>
      </trkpt>
      <trkpt lat="44.73032" lon="5.36352">
        <ele>953.77</ele>
        <time>2015-06-19T11:15:41Z</time>
      </trkpt>
      <trkpt lat="44.73051" lon="5.36344">
        <ele>951.84</ele>
        <time>2015-06-19T11:16:01Z</time>
      </trkpt>
      <trkpt lat="44.73072" lon="5.36335">
        <ele>951.84</ele>
        <time>2015-06-19T11:16:21Z</time>
      </trkpt>
      <trkpt lat="44.73095" lon="5.36326">
        <ele>951.36</ele>
        <time>2015-06-19T11:16:41Z</time>
      </trkpt>
      <trkpt lat="44.73118" lon="5.36322">
        <ele>950.4</ele>
        <time>2015-06-19T11:17:01Z</time>
      </trkpt>
      <trkpt lat="44.7314" lon="5.36316">
        <ele>950.4</ele>
        <time>2015-06-19T11:17:21Z</time>
      </trkpt>
      <trkpt lat="44.73163" lon="5.36306">
        <ele>948.48</ele>
        <time>2015-06-19T11:17:41Z</time>
      </trkpt>
      <trkpt lat="44.73187" lon="5.36295">
        <ele>946.56</ele>
        <time>2015-06-19T11:18:01Z</time>
      </trkpt>
      <trkpt lat="44.73205" lon="5.36288">
        <ele>945.59</ele>
        <time>2015-06-19T11:18:21Z</time>
      </trkpt>
      <trkpt lat="44.73222" lon="5.36281">
        <ele>945.11</ele>
        <time>2015-06-19T11:18:41Z</time>
      </trkpt>
      <trkpt lat="44.73243" lon="5.36263">
        <ele>943.19</ele>
        <time>2015-06-19T11:19:01Z</time>
      </trkpt>
      <trkpt lat="44.73259" lon="5.36241">
        <ele>941.27</ele>
        <time>2015-06-19T11:19:21Z</time>
      </trkpt>
      <trkpt lat="44.73259" lon="5.36242">
        <ele>941.27</ele>
        <time>2015-06-19T11:19:41Z</time>
      </trkpt>
      <trkpt lat="44.73264" lon="5.36233">
        <ele>940.79</ele>
        <time>2015-06-19T11:20:01Z</time>
      </trkpt>
      <trkpt lat="44.73267" lon="5.3623">
        <ele>940.31</ele>
        <time>2015-06-19T11:20:21Z</time>
      </trkpt>
      <trkpt lat="44.73267" lon="5.3623">
        <ele>941.27</ele>
        <time>2015-06-19T11:20:41Z</time>
      </trkpt>
      <trkpt lat="44.73282" lon="5.36212">
        <ele>939.35</ele>
        <time>2015-06-19T11:21:01Z</time>
      </trkpt>
      <trkpt lat="44.73294" lon="5.36185">
        <ele>937.42</ele>
        <time>2015-06-19T11:21:21Z</time>
      </trkpt>
      <trkpt lat="44.73297" lon="5.36152">
        <ele>938.38</ele>
        <time>2015-06-19T11:21:41Z</time>
      </trkpt>
      <trkpt lat="44.73297" lon="5.36132">
        <ele>939.35</ele>
        <time>2015-06-19T11:22:01Z</time>
      </trkpt>
      <trkpt lat="44.73297" lon="5.36122">
        <ele>939.35</ele>
        <time>2015-06-19T11:22:21Z</time>
      </trkpt>
      <trkpt lat="44.73296" lon="5.36121">
        <ele>939.35</ele>
        <time>2015-06-19T11:22:41Z</time>
      </trkpt>
      <trkpt lat="44.73296" lon="5.36121">
        <ele>939.35</ele>
        <time>2015-06-19T11:23:01Z</time>
      </trkpt>
      <trkpt lat="44.73297" lon="5.36121">
        <ele>938.86</ele>
        <time>2015-06-19T11:23:21Z</time>
      </trkpt>
      <trkpt lat="44.73297" lon="5.36115">
        <ele>938.86</ele>
        <time>2015-06-19T11:23:41Z</time>
      </trkpt>
      <trkpt lat="44.73299" lon="5.36086">
        <ele>939.83</ele>
        <time>2015-06-19T11:24:01Z</time>
      </trkpt>
      <trkpt lat="44.733" lon="5.36069">
        <ele>942.71</ele>
        <time>2015-06-19T11:24:21Z</time>
      </trkpt>
      <trkpt lat="44.733" lon="5.36069">
        <ele>942.23</ele>
        <time>2015-06-19T11:24:41Z</time>
      </trkpt>
      <trkpt lat="44.733" lon="5.3607">
        <ele>942.23</ele>
        <time>2015-06-19T11:25:01Z</time>
      </trkpt>
      <trkpt lat="44.733" lon="5.3607">
        <ele>942.23</ele>
        <time>2015-06-19T11:25:21Z</time>
      </trkpt>
      <trkpt lat="44.73298" lon="5.36068">
        <ele>943.19</ele>
        <time>2015-06-19T11:25:41Z</time>
      </trkpt>
      <trkpt lat="44.73289" lon="5.36056">
        <ele>944.63</ele>
        <time>2015-06-19T11:26:01Z</time>
      </trkpt>
      <trkpt lat="44.73278" lon="5.36037">
        <ele>947.04</ele>
        <time>2015-06-19T11:26:21Z</time>
      </trkpt>
      <trkpt lat="44.73262" lon="5.36024">
        <ele>947.52</ele>
        <time>2015-06-19T11:26:41Z</time>
      </trkpt>
      <trkpt lat="44.73246" lon="5.36016">
        <ele>949.44</ele>
        <time>2015-06-19T11:27:01Z</time>
      </trkpt>
      <trkpt lat="44.73227" lon="5.36009">
        <ele>952.32</ele>
        <time>2015-06-19T11:27:21Z</time>
      </trkpt>
      <trkpt lat="44.73211" lon="5.35999">
        <ele>954.73</ele>
        <time>2015-06-19T11:27:41Z</time>
      </trkpt>
      <trkpt lat="44.73197" lon="5.35984">
        <ele>956.65</ele>
        <time>2015-06-19T11:28:01Z</time>
      </trkpt>
      <trkpt lat="44.73191" lon="5.35974">
        <ele>959.05</ele>
        <time>2015-06-19T11:28:21Z</time>
      </trkpt>
      <trkpt lat="44.73194" lon="5.35973">
        <ele>960.49</ele>
        <time>2015-06-19T11:28:41Z</time>
      </trkpt>
      <trkpt lat="44.73217" lon="5.35975">
        <ele>961.94</ele>
        <time>2015-06-19T11:29:01Z</time>
      </trkpt>
      <trkpt lat="44.73249" lon="5.35967">
        <ele>964.34</ele>
        <time>2015-06-19T11:29:21Z</time>
      </trkpt>
      <trkpt lat="44.73271" lon="5.35961">
        <ele>967.7</ele>
        <time>2015-06-19T11:29:41Z</time>
      </trkpt>
      <trkpt lat="44.73279" lon="5.35962">
        <ele>969.15</ele>
        <time>2015-06-19T11:30:01Z</time>
      </trkpt>
      <trkpt lat="44.73258" lon="5.35963">
        <ele>970.11</ele>
        <time>2015-06-19T11:30:21Z</time>
      </trkpt>
      <trkpt lat="44.73239" lon="5.3596">
        <ele>973.47</ele>
        <time>2015-06-19T11:30:41Z</time>
      </trkpt>
      <trkpt lat="44.73222" lon="5.3595">
        <ele>974.43</ele>
        <time>2015-06-19T11:31:01Z</time>
      </trkpt>
      <trkpt lat="44.73211" lon="5.3594">
        <ele>977.32</ele>
        <time>2015-06-19T11:31:21Z</time>
      </trkpt>
      <trkpt lat="44.73231" lon="5.3593">
        <ele>977.8</ele>
        <time>2015-06-19T11:31:41Z</time>
      </trkpt>
      <trkpt lat="44.73249" lon="5.35928">
        <ele>979.72</ele>
        <time>2015-06-19T11:32:01Z</time>
      </trkpt>
      <trkpt lat="44.73269" lon="5.35928">
        <ele>982.12</ele>
        <time>2015-06-19T11:32:21Z</time>
      </trkpt>
      <trkpt lat="44.73276" lon="5.35927">
        <ele>983.57</ele>
        <time>2015-06-19T11:32:41Z</time>
      </trkpt>
      <trkpt lat="44.73296" lon="5.35931">
        <ele>984.53</ele>
        <time>2015-06-19T11:33:01Z</time>
      </trkpt>
      <trkpt lat="44.73319" lon="5.35928">
        <ele>986.93</ele>
        <time>2015-06-19T11:33:21Z</time>
      </trkpt>
      <trkpt lat="44.73341" lon="5.35935">
        <ele>989.33</ele>
        <time>2015-06-19T11:33:41Z</time>
      </trkpt>
      <trkpt lat="44.73361" lon="5.35941">
        <ele>989.81</ele>
        <time>2015-06-19T11:34:01Z</time>
      </trkpt>
      <trkpt lat="44.73379" lon="5.35923">
        <ele>991.26</ele>
        <time>2015-06-19T11:34:21Z</time>
      </trkpt>
      <trkpt lat="44.73386" lon="5.35902">
        <ele>992.7</ele>
        <time>2015-06-19T11:34:41Z</time>
      </trkpt>
      <trkpt lat="44.73382" lon="5.35879">
        <ele>994.14</ele>
        <time>2015-06-19T11:35:01Z</time>
      </trkpt>
      <trkpt lat="44.73381" lon="5.35862">
        <ele>995.1</ele>
        <time>2015-06-19T11:35:21Z</time>
      </trkpt>
      <trkpt lat="44.73382" lon="5.3584">
        <ele>994.62</ele>
        <time>2015-06-19T11:35:41Z</time>
      </trkpt>
      <trkpt lat="44.73384" lon="5.35808">
        <ele>997.02</ele>
        <time>2015-06-19T11:36:01Z</time>
      </trkpt>
      <trkpt lat="44.73391" lon="5.35779">
        <ele>1000.39</ele>
        <time>2015-06-19T11:36:21Z</time>
      </trkpt>
      <trkpt lat="44.73397" lon="5.35747">
        <ele>1002.31</ele>
        <time>2015-06-19T11:36:41Z</time>
      </trkpt>
      <trkpt lat="44.73397" lon="5.35722">
        <ele>1003.75</ele>
        <time>2015-06-19T11:37:01Z</time>
      </trkpt>
      <trkpt lat="44.73392" lon="5.35697">
        <ele>1005.2</ele>
        <time>2015-06-19T11:37:21Z</time>
      </trkpt>
      <trkpt lat="44.73388" lon="5.35666">
        <ele>1007.6</ele>
        <time>2015-06-19T11:37:41Z</time>
      </trkpt>
      <trkpt lat="44.73396" lon="5.35639">
        <ele>1010.96</ele>
        <time>2015-06-19T11:38:01Z</time>
      </trkpt>
      <trkpt lat="44.73402" lon="5.35615">
        <ele>1011.93</ele>
        <time>2015-06-19T11:38:21Z</time>
      </trkpt>
      <trkpt lat="44.73404" lon="5.35588">
        <ele>1013.37</ele>
        <time>2015-06-19T11:38:41Z</time>
      </trkpt>
      <trkpt lat="44.73405" lon="5.35566">
        <ele>1015.77</ele>
        <time>2015-06-19T11:39:01Z</time>
      </trkpt>
      <trkpt lat="44.73405" lon="5.35546">
        <ele>1018.65</ele>
        <time>2015-06-19T11:39:21Z</time>
      </trkpt>
      <trkpt lat="44.73413" lon="5.35525">
        <ele>1021.06</ele>
        <time>2015-06-19T11:39:41Z</time>
      </trkpt>
      <trkpt lat="44.73422" lon="5.35509">
        <ele>1024.9</ele>
        <time>2015-06-19T11:40:01Z</time>
      </trkpt>
      <trkpt lat="44.73427" lon="5.35486">
        <ele>1028.27</ele>
        <time>2015-06-19T11:40:21Z</time>
      </trkpt>
      <trkpt lat="44.73439" lon="5.35468">
        <ele>1032.59</ele>
        <time>2015-06-19T11:40:41Z</time>
      </trkpt>
      <trkpt lat="44.73452" lon="5.35448">
        <ele>1034.52</ele>
        <time>2015-06-19T11:41:01Z</time>
      </trkpt>
      <trkpt lat="44.73462" lon="5.35429">
        <ele>1038.36</ele>
        <time>2015-06-19T11:41:21Z</time>
      </trkpt>
      <trkpt lat="44.73473" lon="5.35409">
        <ele>1039.32</ele>
        <time>2015-06-19T11:41:41Z</time>
      </trkpt>
      <trkpt lat="44.73478" lon="5.3538">
        <ele>1044.13</ele>
        <time>2015-06-19T11:42:01Z</time>
      </trkpt>
      <trkpt lat="44.7348" lon="5.3535">
        <ele>1043.17</ele>
        <time>2015-06-19T11:42:21Z</time>
      </trkpt>
      <trkpt lat="44.73483" lon="5.35339">
        <ele>1042.21</ele>
        <time>2015-06-19T11:42:41Z</time>
      </trkpt>
      <trkpt lat="44.73489" lon="5.35332">
        <ele>1039.8</ele>
        <time>2015-06-19T11:43:01Z</time>
      </trkpt>
      <trkpt lat="44.73501" lon="5.35312">
        <ele>1035.96</ele>
        <time>2015-06-19T11:43:21Z</time>
      </trkpt>
      <trkpt lat="44.73521" lon="5.35314">
        <ele>1033.07</ele>
        <time>2015-06-19T11:43:41Z</time>
      </trkpt>
      <trkpt lat="44.73544" lon="5.35329">
        <ele>1031.15</ele>
        <time>2015-06-19T11:44:01Z</time>
      </trkpt>
      <trkpt lat="44.73566" lon="5.35328">
        <ele>1029.23</ele>
        <time>2015-06-19T11:44:21Z</time>
      </trkpt>
      <trkpt lat="44.73584" lon="5.35312">
        <ele>1025.86</ele>
        <time>2015-06-19T11:44:41Z</time>
      </trkpt>
      <trkpt lat="44.73594" lon="5.35282">
        <ele>1023.46</ele>
        <time>2015-06-19T11:45:01Z</time>
      </trkpt>
      <trkpt lat="44.73597" lon="5.3525">
        <ele>1021.06</ele>
        <time>2015-06-19T11:45:21Z</time>
      </trkpt>
      <trkpt lat="44.73597" lon="5.35214">
        <ele>1019.13</ele>
        <time>2015-06-19T11:45:41Z</time>
      </trkpt>
      <trkpt lat="44.73599" lon="5.35187">
        <ele>1015.77</ele>
        <time>2015-06-19T11:46:01Z</time>
      </trkpt>
      <trkpt lat="44.736" lon="5.35157">
        <ele>1013.85</ele>
        <time>2015-06-19T11:46:21Z</time>
      </trkpt>
      <trkpt lat="44.73601" lon="5.35126">
        <ele>1010</ele>
        <time>2015-06-19T11:46:41Z</time>
      </trkpt>
      <trkpt lat="44.73602" lon="5.35116">
        <ele>1009.04</ele>
        <time>2015-06-19T11:47:01Z</time>
      </trkpt>
      <trkpt lat="44.73602" lon="5.35116">
        <ele>1007.6</ele>
        <time>2015-06-19T11:47:21Z</time>
      </trkpt>
      <trkpt lat="44.73602" lon="5.35116">
        <ele>1007.6</ele>
        <time>2015-06-19T11:47:41Z</time>
      </trkpt>
      <trkpt lat="44.73602" lon="5.35116">
        <ele>1008.08</ele>
        <time>2015-06-19T11:48:01Z</time>
      </trkpt>
      <trkpt lat="44.73602" lon="5.35116">
        <ele>1008.56</ele>
        <time>2015-06-19T11:48:21Z</time>
      </trkpt>
      <trkpt lat="44.73602" lon="5.35116">
        <ele>1007.6</ele>
        <time>2015-06-19T11:48:41Z</time>
      </trkpt>
      <trkpt lat="44.73603" lon="5.35115">
        <ele>1008.56</ele>
        <time>2015-06-19T11:49:01Z</time>
      </trkpt>
      <trkpt lat="44.73603" lon="5.35115">
        <ele>1007.6</ele>
        <time>2015-06-19T11:49:21Z</time>
      </trkpt>
      <trkpt lat="44.73603" lon="5.35106">
        <ele>1008.08</ele>
        <time>2015-06-19T11:49:41Z</time>
      </trkpt>
      <trkpt lat="44.73601" lon="5.3509">
        <ele>1007.6</ele>
        <time>2015-06-19T11:50:01Z</time>
      </trkpt>
      <trkpt lat="44.73602" lon="5.3509">
        <ele>1010.48</ele>
        <time>2015-06-19T11:50:21Z</time>
      </trkpt>
      <trkpt lat="44.73602" lon="5.3509">
        <ele>1009.52</ele>
        <time>2015-06-19T11:50:41Z</time>
      </trkpt>
      <trkpt lat="44.73602" lon="5.3509">
        <ele>1008.56</ele>
        <time>2015-06-19T11:51:01Z</time>
      </trkpt>
      <trkpt lat="44.73602" lon="5.35089">
        <ele>1009.04</ele>
        <time>2015-06-19T11:51:21Z</time>
      </trkpt>
      <trkpt lat="44.73606" lon="5.35089">
        <ele>1007.6</ele>
        <time>2015-06-19T11:51:41Z</time>
      </trkpt>
      <trkpt lat="44.7361" lon="5.35091">
        <ele>1009.04</ele>
        <time>2015-06-19T11:52:01Z</time>
      </trkpt>
      <trkpt lat="44.73632" lon="5.35096">
        <ele>1005.68</ele>
        <time>2015-06-19T11:52:21Z</time>
      </trkpt>
      <trkpt lat="44.73658" lon="5.35102">
        <ele>1002.31</ele>
        <time>2015-06-19T11:52:41Z</time>
      </trkpt>
      <trkpt lat="44.73683" lon="5.35106">
        <ele>998.47</ele>
        <time>2015-06-19T11:53:01Z</time>
      </trkpt>
      <trkpt lat="44.73707" lon="5.35108">
        <ele>995.1</ele>
        <time>2015-06-19T11:53:21Z</time>
      </trkpt>
      <trkpt lat="44.73726" lon="5.35114">
        <ele>991.74</ele>
        <time>2015-06-19T11:53:41Z</time>
      </trkpt>
      <trkpt lat="44.73749" lon="5.35122">
        <ele>989.33</ele>
        <time>2015-06-19T11:54:01Z</time>
      </trkpt>
      <trkpt lat="44.73773" lon="5.35123">
        <ele>985.97</ele>
        <time>2015-06-19T11:54:21Z</time>
      </trkpt>
      <trkpt lat="44.73797" lon="5.35119">
        <ele>983.57</ele>
        <time>2015-06-19T11:54:41Z</time>
      </trkpt>
      <trkpt lat="44.73829" lon="5.35113">
        <ele>981.64</ele>
        <time>2015-06-19T11:55:01Z</time>
      </trkpt>
      <trkpt lat="44.73853" lon="5.35112">
        <ele>979.24</ele>
        <time>2015-06-19T11:55:21Z</time>
      </trkpt>
      <trkpt lat="44.73874" lon="5.3511">
        <ele>976.36</ele>
        <time>2015-06-19T11:55:41Z</time>
      </trkpt>
      <trkpt lat="44.73899" lon="5.35104">
        <ele>972.51</ele>
        <time>2015-06-19T11:56:01Z</time>
      </trkpt>
      <trkpt lat="44.73928" lon="5.35098">
        <ele>970.59</ele>
        <time>2015-06-19T11:56:21Z</time>
      </trkpt>
      <trkpt lat="44.73954" lon="5.35099">
        <ele>968.67</ele>
        <time>2015-06-19T11:56:41Z</time>
      </trkpt>
      <trkpt lat="44.7398" lon="5.35096">
        <ele>968.18</ele>
        <time>2015-06-19T11:57:01Z</time>
      </trkpt>
      <trkpt lat="44.74005" lon="5.35094">
        <ele>968.67</ele>
        <time>2015-06-19T11:57:21Z</time>
      </trkpt>
      <trkpt lat="44.74031" lon="5.35094">
        <ele>968.67</ele>
        <time>2015-06-19T11:57:41Z</time>
      </trkpt>
      <trkpt lat="44.74052" lon="5.35104">
        <ele>968.18</ele>
        <time>2015-06-19T11:58:01Z</time>
      </trkpt>
      <trkpt lat="44.74077" lon="5.35099">
        <ele>968.18</ele>
        <time>2015-06-19T11:58:21Z</time>
      </trkpt>
      <trkpt lat="44.74102" lon="5.35098">
        <ele>967.7</ele>
        <time>2015-06-19T11:58:41Z</time>
      </trkpt>
      <trkpt lat="44.74126" lon="5.35078">
        <ele>966.74</ele>
        <time>2015-06-19T11:59:01Z</time>
      </trkpt>
      <trkpt lat="44.74148" lon="5.35059">
        <ele>967.22</ele>
        <time>2015-06-19T11:59:21Z</time>
      </trkpt>
      <trkpt lat="44.74175" lon="5.35049">
        <ele>965.78</ele>
        <time>2015-06-19T11:59:41Z</time>
      </trkpt>
      <trkpt lat="44.74198" lon="5.35048">
        <ele>964.82</ele>
        <time>2015-06-19T12:00:01Z</time>
      </trkpt>
      <trkpt lat="44.74216" lon="5.35051">
        <ele>966.74</ele>
        <time>2015-06-19T12:00:21Z</time>
      </trkpt>
      <trkpt lat="44.74238" lon="5.35048">
        <ele>969.15</ele>
        <time>2015-06-19T12:00:41Z</time>
      </trkpt>
      <trkpt lat="44.74255" lon="5.35037">
        <ele>969.63</ele>
        <time>2015-06-19T12:01:01Z</time>
      </trkpt>
      <trkpt lat="44.74277" lon="5.35028">
        <ele>972.03</ele>
        <time>2015-06-19T12:01:21Z</time>
      </trkpt>
      <trkpt lat="44.74294" lon="5.35017">
        <ele>974.91</ele>
        <time>2015-06-19T12:01:41Z</time>
      </trkpt>
      <trkpt lat="44.74312" lon="5.34999">
        <ele>978.28</ele>
        <time>2015-06-19T12:02:01Z</time>
      </trkpt>
      <trkpt lat="44.74331" lon="5.34992">
        <ele>979.24</ele>
        <time>2015-06-19T12:02:21Z</time>
      </trkpt>
      <trkpt lat="44.74349" lon="5.3499">
        <ele>983.57</ele>
        <time>2015-06-19T12:02:41Z</time>
      </trkpt>
      <trkpt lat="44.74369" lon="5.34993">
        <ele>988.85</ele>
        <time>2015-06-19T12:03:01Z</time>
      </trkpt>
      <trkpt lat="44.74384" lon="5.35">
        <ele>990.3</ele>
        <time>2015-06-19T12:03:21Z</time>
      </trkpt>
      <trkpt lat="44.74398" lon="5.35015">
        <ele>992.7</ele>
        <time>2015-06-19T12:03:41Z</time>
      </trkpt>
      <trkpt lat="44.74405" lon="5.35019">
        <ele>994.14</ele>
        <time>2015-06-19T12:04:01Z</time>
      </trkpt>
      <trkpt lat="44.74412" lon="5.35028">
        <ele>994.62</ele>
        <time>2015-06-19T12:04:21Z</time>
      </trkpt>
      <trkpt lat="44.74412" lon="5.35028">
        <ele>994.62</ele>
        <time>2015-06-19T12:04:41Z</time>
      </trkpt>
      <trkpt lat="44.74412" lon="5.35029">
        <ele>994.14</ele>
        <time>2015-06-19T12:05:01Z</time>
      </trkpt>
      <trkpt lat="44.74413" lon="5.35029">
        <ele>993.66</ele>
        <time>2015-06-19T12:05:21Z</time>
      </trkpt>
      <trkpt lat="44.74413" lon="5.35029">
        <ele>994.62</ele>
        <time>2015-06-19T12:05:41Z</time>
      </trkpt>
      <trkpt lat="44.74413" lon="5.35029">
        <ele>994.62</ele>
        <time>2015-06-19T12:06:01Z</time>
      </trkpt>
      <trkpt lat="44.74414" lon="5.35029">
        <ele>994.62</ele>
        <time>2015-06-19T12:06:21Z</time>
      </trkpt>
      <trkpt lat="44.74414" lon="5.35029">
        <ele>994.14</ele>
        <time>2015-06-19T12:06:41Z</time>
      </trkpt>
      <trkpt lat="44.74414" lon="5.35029">
        <ele>994.62</ele>
        <time>2015-06-19T12:07:01Z</time>
      </trkpt>
      <trkpt lat="44.74414" lon="5.35028">
        <ele>995.1</ele>
        <time>2015-06-19T12:07:21Z</time>
      </trkpt>
      <trkpt lat="44.74414" lon="5.35028">
        <ele>995.1</ele>
        <time>2015-06-19T12:07:41Z</time>
      </trkpt>
      <trkpt lat="44.74414" lon="5.35029">
        <ele>994.62</ele>
        <time>2015-06-19T12:08:01Z</time>
      </trkpt>
      <trkpt lat="44.74414" lon="5.35029">
        <ele>993.66</ele>
        <time>2015-06-19T12:08:21Z</time>
      </trkpt>
      <trkpt lat="44.74415" lon="5.35029">
        <ele>993.66</ele>
        <time>2015-06-19T12:08:41Z</time>
      </trkpt>
      <trkpt lat="44.74415" lon="5.35029">
        <ele>994.14</ele>
        <time>2015-06-19T12:09:01Z</time>
      </trkpt>
      <trkpt lat="44.74415" lon="5.35029">
        <ele>994.14</ele>
        <time>2015-06-19T12:09:21Z</time>
      </trkpt>
      <trkpt lat="44.74415" lon="5.35029">
        <ele>994.62</ele>
        <time>2015-06-19T12:09:41Z</time>
      </trkpt>
      <trkpt lat="44.74415" lon="5.35029">
        <ele>995.1</ele>
        <time>2015-06-19T12:10:01Z</time>
      </trkpt>
      <trkpt lat="44.74415" lon="5.35029">
        <ele>994.62</ele>
        <time>2015-06-19T12:10:21Z</time>
      </trkpt>
      <trkpt lat="44.74415" lon="5.35029">
        <ele>993.66</ele>
        <time>2015-06-19T12:10:41Z</time>
      </trkpt>
      <trkpt lat="44.74415" lon="5.35029">
        <ele>994.14</ele>
        <time>2015-06-19T12:11:01Z</time>
      </trkpt>
      <trkpt lat="44.74415" lon="5.35029">
        <ele>993.66</ele>
        <time>2015-06-19T12:11:21Z</time>
      </trkpt>
      <trkpt lat="44.74415" lon="5.35029">
        <ele>993.66</ele>
        <time>2015-06-19T12:11:41Z</time>
      </trkpt>
      <trkpt lat="44.74416" lon="5.35028">
        <ele>993.18</ele>
        <time>2015-06-19T12:12:01Z</time>
      </trkpt>
      <trkpt lat="44.74416" lon="5.35028">
        <ele>994.14</ele>
        <time>2015-06-19T12:12:21Z</time>
      </trkpt>
      <trkpt lat="44.74416" lon="5.35029">
        <ele>994.62</ele>
        <time>2015-06-19T12:12:41Z</time>
      </trkpt>
      <trkpt lat="44.74416" lon="5.35029">
        <ele>995.1</ele>
        <time>2015-06-19T12:13:01Z</time>
      </trkpt>
      <trkpt lat="44.74415" lon="5.35026">
        <ele>991.74</ele>
        <time>2015-06-19T12:13:21Z</time>
      </trkpt>
      <trkpt lat="44.74416" lon="5.35026">
        <ele>992.7</ele>
        <time>2015-06-19T12:13:30Z</time>
      </trkpt>
      <trkpt lat="44.74345" lon="5.34973">
        <ele>977.8</ele>
        <time>2015-06-19T13:24:17Z</time>
      </trkpt>
      <trkpt lat="44.74347" lon="5.34979">
        <ele>980.2</ele>
        <time>2015-06-19T13:24:38Z</time>
      </trkpt>
      <trkpt lat="44.74346" lon="5.34979">
        <ele>981.64</ele>
        <time>2015-06-19T13:24:58Z</time>
      </trkpt>
      <trkpt lat="44.74344" lon="5.34979">
        <ele>982.12</ele>
        <time>2015-06-19T13:25:18Z</time>
      </trkpt>
      <trkpt lat="44.74345" lon="5.34978">
        <ele>982.12</ele>
        <time>2015-06-19T13:25:38Z</time>
      </trkpt>
      <trkpt lat="44.74346" lon="5.34977">
        <ele>982.6</ele>
        <time>2015-06-19T13:25:58Z</time>
      </trkpt>
      <trkpt lat="44.74337" lon="5.34987">
        <ele>984.05</ele>
        <time>2015-06-19T13:26:18Z</time>
      </trkpt>
      <trkpt lat="44.74338" lon="5.34991">
        <ele>985.01</ele>
        <time>2015-06-19T13:26:38Z</time>
      </trkpt>
      <trkpt lat="44.74338" lon="5.34991">
        <ele>985.01</ele>
        <time>2015-06-19T13:26:58Z</time>
      </trkpt>
      <trkpt lat="44.74327" lon="5.34996">
        <ele>984.05</ele>
        <time>2015-06-19T13:27:18Z</time>
      </trkpt>
      <trkpt lat="44.74312" lon="5.34998">
        <ele>983.09</ele>
        <time>2015-06-19T13:27:38Z</time>
      </trkpt>
      <trkpt lat="44.74309" lon="5.34997">
        <ele>983.57</ele>
        <time>2015-06-19T13:27:58Z</time>
      </trkpt>
      <trkpt lat="44.74301" lon="5.35004">
        <ele>981.16</ele>
        <time>2015-06-19T13:28:18Z</time>
      </trkpt>
      <trkpt lat="44.74286" lon="5.35027">
        <ele>978.76</ele>
        <time>2015-06-19T13:28:38Z</time>
      </trkpt>
      <trkpt lat="44.74268" lon="5.35033">
        <ele>975.39</ele>
        <time>2015-06-19T13:28:58Z</time>
      </trkpt>
      <trkpt lat="44.74258" lon="5.35039">
        <ele>973.95</ele>
        <time>2015-06-19T13:29:18Z</time>
      </trkpt>
      <trkpt lat="44.74258" lon="5.3504">
        <ele>973.47</ele>
        <time>2015-06-19T13:29:38Z</time>
      </trkpt>
      <trkpt lat="44.74248" lon="5.35047">
        <ele>973.47</ele>
        <time>2015-06-19T13:29:58Z</time>
      </trkpt>
      <trkpt lat="44.74227" lon="5.35054">
        <ele>971.55</ele>
        <time>2015-06-19T13:30:18Z</time>
      </trkpt>
      <trkpt lat="44.74209" lon="5.3506">
        <ele>970.59</ele>
        <time>2015-06-19T13:30:38Z</time>
      </trkpt>
      <trkpt lat="44.74188" lon="5.35065">
        <ele>968.67</ele>
        <time>2015-06-19T13:30:58Z</time>
      </trkpt>
      <trkpt lat="44.74169" lon="5.35078">
        <ele>966.74</ele>
        <time>2015-06-19T13:31:18Z</time>
      </trkpt>
      <trkpt lat="44.7415" lon="5.35097">
        <ele>964.34</ele>
        <time>2015-06-19T13:31:38Z</time>
      </trkpt>
      <trkpt lat="44.74128" lon="5.35121">
        <ele>963.86</ele>
        <time>2015-06-19T13:31:58Z</time>
      </trkpt>
      <trkpt lat="44.74111" lon="5.35146">
        <ele>963.38</ele>
        <time>2015-06-19T13:32:18Z</time>
      </trkpt>
      <trkpt lat="44.74101" lon="5.35155">
        <ele>962.9</ele>
        <time>2015-06-19T13:32:38Z</time>
      </trkpt>
      <trkpt lat="44.74101" lon="5.35155">
        <ele>962.9</ele>
        <time>2015-06-19T13:32:58Z</time>
      </trkpt>
      <trkpt lat="44.74097" lon="5.35158">
        <ele>961.46</ele>
        <time>2015-06-19T13:33:18Z</time>
      </trkpt>
      <trkpt lat="44.74083" lon="5.35171">
        <ele>961.46</ele>
        <time>2015-06-19T13:33:38Z</time>
      </trkpt>
      <trkpt lat="44.7407" lon="5.35184">
        <ele>958.57</ele>
        <time>2015-06-19T13:33:58Z</time>
      </trkpt>
      <trkpt lat="44.74059" lon="5.35202">
        <ele>956.65</ele>
        <time>2015-06-19T13:34:18Z</time>
      </trkpt>
      <trkpt lat="44.74051" lon="5.35224">
        <ele>956.65</ele>
        <time>2015-06-19T13:34:38Z</time>
      </trkpt>
      <trkpt lat="44.74043" lon="5.35248">
        <ele>954.25</ele>
        <time>2015-06-19T13:34:58Z</time>
      </trkpt>
      <trkpt lat="44.74034" lon="5.35273">
        <ele>952.32</ele>
        <time>2015-06-19T13:35:18Z</time>
      </trkpt>
      <trkpt lat="44.74025" lon="5.35302">
        <ele>950.88</ele>
        <time>2015-06-19T13:35:38Z</time>
      </trkpt>
      <trkpt lat="44.74016" lon="5.35326">
        <ele>949.92</ele>
        <time>2015-06-19T13:35:58Z</time>
      </trkpt>
      <trkpt lat="44.74009" lon="5.35353">
        <ele>947.52</ele>
        <time>2015-06-19T13:36:18Z</time>
      </trkpt>
      <trkpt lat="44.74002" lon="5.35383">
        <ele>945.11</ele>
        <time>2015-06-19T13:36:38Z</time>
      </trkpt>
      <trkpt lat="44.73997" lon="5.35411">
        <ele>941.75</ele>
        <time>2015-06-19T13:36:58Z</time>
      </trkpt>
      <trkpt lat="44.73993" lon="5.35437">
        <ele>942.23</ele>
        <time>2015-06-19T13:37:18Z</time>
      </trkpt>
      <trkpt lat="44.73993" lon="5.35456">
        <ele>944.63</ele>
        <time>2015-06-19T13:37:38Z</time>
      </trkpt>
      <trkpt lat="44.73993" lon="5.35469">
        <ele>943.19</ele>
        <time>2015-06-19T13:37:58Z</time>
      </trkpt>
      <trkpt lat="44.73992" lon="5.35491">
        <ele>941.75</ele>
        <time>2015-06-19T13:38:18Z</time>
      </trkpt>
      <trkpt lat="44.73992" lon="5.35522">
        <ele>939.83</ele>
        <time>2015-06-19T13:38:38Z</time>
      </trkpt>
      <trkpt lat="44.73992" lon="5.35549">
        <ele>937.9</ele>
        <time>2015-06-19T13:38:58Z</time>
      </trkpt>
      <trkpt lat="44.73998" lon="5.35548">
        <ele>937.9</ele>
        <time>2015-06-19T13:39:18Z</time>
      </trkpt>
      <trkpt lat="44.73999" lon="5.35543">
        <ele>936.94</ele>
        <time>2015-06-19T13:39:38Z</time>
      </trkpt>
      <trkpt lat="44.73997" lon="5.35517">
        <ele>935.02</ele>
        <time>2015-06-19T13:39:58Z</time>
      </trkpt>
      <trkpt lat="44.73997" lon="5.35485">
        <ele>935.02</ele>
        <time>2015-06-19T13:40:18Z</time>
      </trkpt>
      <trkpt lat="44.73998" lon="5.35456">
        <ele>932.62</ele>
        <time>2015-06-19T13:40:38Z</time>
      </trkpt>
      <trkpt lat="44.74005" lon="5.35422">
        <ele>931.65</ele>
        <time>2015-06-19T13:40:58Z</time>
      </trkpt>
      <trkpt lat="44.74012" lon="5.35391">
        <ele>930.21</ele>
        <time>2015-06-19T13:41:18Z</time>
      </trkpt>
      <trkpt lat="44.74023" lon="5.35364">
        <ele>930.21</ele>
        <time>2015-06-19T13:41:38Z</time>
      </trkpt>
      <trkpt lat="44.74032" lon="5.35344">
        <ele>929.25</ele>
        <time>2015-06-19T13:41:58Z</time>
      </trkpt>
      <trkpt lat="44.74032" lon="5.35344">
        <ele>928.29</ele>
        <time>2015-06-19T13:42:18Z</time>
      </trkpt>
      <trkpt lat="44.74032" lon="5.35343">
        <ele>925.89</ele>
        <time>2015-06-19T13:42:38Z</time>
      </trkpt>
      <trkpt lat="44.74036" lon="5.35342">
        <ele>928.29</ele>
        <time>2015-06-19T13:42:58Z</time>
      </trkpt>
      <trkpt lat="44.74036" lon="5.35342">
        <ele>929.73</ele>
        <time>2015-06-19T13:43:18Z</time>
      </trkpt>
      <trkpt lat="44.74032" lon="5.35358">
        <ele>927.81</ele>
        <time>2015-06-19T13:43:38Z</time>
      </trkpt>
      <trkpt lat="44.74032" lon="5.35379">
        <ele>924.93</ele>
        <time>2015-06-19T13:43:58Z</time>
      </trkpt>
      <trkpt lat="44.74029" lon="5.35401">
        <ele>922.04</ele>
        <time>2015-06-19T13:44:18Z</time>
      </trkpt>
      <trkpt lat="44.74027" lon="5.35409">
        <ele>918.2</ele>
        <time>2015-06-19T13:44:38Z</time>
      </trkpt>
      <trkpt lat="44.74034" lon="5.35397">
        <ele>915.31</ele>
        <time>2015-06-19T13:44:58Z</time>
      </trkpt>
      <trkpt lat="44.74039" lon="5.35405">
        <ele>912.43</ele>
        <time>2015-06-19T13:45:18Z</time>
      </trkpt>
      <trkpt lat="44.74038" lon="5.35434">
        <ele>910.51</ele>
        <time>2015-06-19T13:45:38Z</time>
      </trkpt>
      <trkpt lat="44.74042" lon="5.35465">
        <ele>907.62</ele>
        <time>2015-06-19T13:45:58Z</time>
      </trkpt>
      <trkpt lat="44.74046" lon="5.35494">
        <ele>904.26</ele>
        <time>2015-06-19T13:46:18Z</time>
      </trkpt>
      <trkpt lat="44.74049" lon="5.35527">
        <ele>902.33</ele>
        <time>2015-06-19T13:46:38Z</time>
      </trkpt>
      <trkpt lat="44.74048" lon="5.35559">
        <ele>902.33</ele>
        <time>2015-06-19T13:46:58Z</time>
      </trkpt>
      <trkpt lat="44.74048" lon="5.35588">
        <ele>900.89</ele>
        <time>2015-06-19T13:47:18Z</time>
      </trkpt>
      <trkpt lat="44.74048" lon="5.35618">
        <ele>898.49</ele>
        <time>2015-06-19T13:47:38Z</time>
      </trkpt>
      <trkpt lat="44.74049" lon="5.35649">
        <ele>897.05</ele>
        <time>2015-06-19T13:47:58Z</time>
      </trkpt>
      <trkpt lat="44.74033" lon="5.35664">
        <ele>896.09</ele>
        <time>2015-06-19T13:48:18Z</time>
      </trkpt>
      <trkpt lat="44.74017" lon="5.35674">
        <ele>893.68</ele>
        <time>2015-06-19T13:48:38Z</time>
      </trkpt>
      <trkpt lat="44.73988" lon="5.35685">
        <ele>891.76</ele>
        <time>2015-06-19T13:48:58Z</time>
      </trkpt>
      <trkpt lat="44.73967" lon="5.35685">
        <ele>889.36</ele>
        <time>2015-06-19T13:49:18Z</time>
      </trkpt>
      <trkpt lat="44.73943" lon="5.35684">
        <ele>887.43</ele>
        <time>2015-06-19T13:49:38Z</time>
      </trkpt>
      <trkpt lat="44.73919" lon="5.35674">
        <ele>885.99</ele>
        <time>2015-06-19T13:49:58Z</time>
      </trkpt>
      <trkpt lat="44.73898" lon="5.3567">
        <ele>884.07</ele>
        <time>2015-06-19T13:50:18Z</time>
      </trkpt>
      <trkpt lat="44.73878" lon="5.35669">
        <ele>882.15</ele>
        <time>2015-06-19T13:50:38Z</time>
      </trkpt>
      <trkpt lat="44.73855" lon="5.35671">
        <ele>880.22</ele>
        <time>2015-06-19T13:50:58Z</time>
      </trkpt>
      <trkpt lat="44.7383" lon="5.35677">
        <ele>878.3</ele>
        <time>2015-06-19T13:51:18Z</time>
      </trkpt>
      <trkpt lat="44.73814" lon="5.35693">
        <ele>876.38</ele>
        <time>2015-06-19T13:51:38Z</time>
      </trkpt>
      <trkpt lat="44.73807" lon="5.35718">
        <ele>873.98</ele>
        <time>2015-06-19T13:51:58Z</time>
      </trkpt>
      <trkpt lat="44.73784" lon="5.35738">
        <ele>873.98</ele>
        <time>2015-06-19T13:52:18Z</time>
      </trkpt>
      <trkpt lat="44.73766" lon="5.35761">
        <ele>874.46</ele>
        <time>2015-06-19T13:52:38Z</time>
      </trkpt>
      <trkpt lat="44.73753" lon="5.35788">
        <ele>872.05</ele>
        <time>2015-06-19T13:52:58Z</time>
      </trkpt>
      <trkpt lat="44.73744" lon="5.35814">
        <ele>869.65</ele>
        <time>2015-06-19T13:53:18Z</time>
      </trkpt>
      <trkpt lat="44.73729" lon="5.35834">
        <ele>867.73</ele>
        <time>2015-06-19T13:53:38Z</time>
      </trkpt>
      <trkpt lat="44.73713" lon="5.35855">
        <ele>866.29</ele>
        <time>2015-06-19T13:53:58Z</time>
      </trkpt>
      <trkpt lat="44.73702" lon="5.35876">
        <ele>866.77</ele>
        <time>2015-06-19T13:54:18Z</time>
      </trkpt>
      <trkpt lat="44.73686" lon="5.359">
        <ele>865.32</ele>
        <time>2015-06-19T13:54:38Z</time>
      </trkpt>
      <trkpt lat="44.73663" lon="5.35915">
        <ele>863.4</ele>
        <time>2015-06-19T13:54:58Z</time>
      </trkpt>
      <trkpt lat="44.73646" lon="5.35925">
        <ele>861</ele>
        <time>2015-06-19T13:55:18Z</time>
      </trkpt>
      <trkpt lat="44.73635" lon="5.35951">
        <ele>858.11</ele>
        <time>2015-06-19T13:55:38Z</time>
      </trkpt>
      <trkpt lat="44.7363" lon="5.35979">
        <ele>855.23</ele>
        <time>2015-06-19T13:55:58Z</time>
      </trkpt>
      <trkpt lat="44.73626" lon="5.36008">
        <ele>853.31</ele>
        <time>2015-06-19T13:56:18Z</time>
      </trkpt>
      <trkpt lat="44.73629" lon="5.36037">
        <ele>851.38</ele>
        <time>2015-06-19T13:56:38Z</time>
      </trkpt>
      <trkpt lat="44.73637" lon="5.36065">
        <ele>848.5</ele>
        <time>2015-06-19T13:56:58Z</time>
      </trkpt>
      <trkpt lat="44.73646" lon="5.36091">
        <ele>847.54</ele>
        <time>2015-06-19T13:57:18Z</time>
      </trkpt>
      <trkpt lat="44.73654" lon="5.3612">
        <ele>846.1</ele>
        <time>2015-06-19T13:57:38Z</time>
      </trkpt>
      <trkpt lat="44.73655" lon="5.36126">
        <ele>845.14</ele>
        <time>2015-06-19T13:57:58Z</time>
      </trkpt>
      <trkpt lat="44.73657" lon="5.3614">
        <ele>844.66</ele>
        <time>2015-06-19T13:58:18Z</time>
      </trkpt>
      <trkpt lat="44.73664" lon="5.36161">
        <ele>843.21</ele>
        <time>2015-06-19T13:58:38Z</time>
      </trkpt>
      <trkpt lat="44.73661" lon="5.36182">
        <ele>840.81</ele>
        <time>2015-06-19T13:58:58Z</time>
      </trkpt>
      <trkpt lat="44.73639" lon="5.36187">
        <ele>838.89</ele>
        <time>2015-06-19T13:59:18Z</time>
      </trkpt>
      <trkpt lat="44.73629" lon="5.36188">
        <ele>836.96</ele>
        <time>2015-06-19T13:59:38Z</time>
      </trkpt>
      <trkpt lat="44.73629" lon="5.36188">
        <ele>836.96</ele>
        <time>2015-06-19T13:59:58Z</time>
      </trkpt>
      <trkpt lat="44.73613" lon="5.36188">
        <ele>835.52</ele>
        <time>2015-06-19T14:00:18Z</time>
      </trkpt>
      <trkpt lat="44.73592" lon="5.36196">
        <ele>834.08</ele>
        <time>2015-06-19T14:00:38Z</time>
      </trkpt>
      <trkpt lat="44.73572" lon="5.36212">
        <ele>831.2</ele>
        <time>2015-06-19T14:00:58Z</time>
      </trkpt>
      <trkpt lat="44.73555" lon="5.36224">
        <ele>829.76</ele>
        <time>2015-06-19T14:01:18Z</time>
      </trkpt>
      <trkpt lat="44.73545" lon="5.36244">
        <ele>826.39</ele>
        <time>2015-06-19T14:01:38Z</time>
      </trkpt>
      <trkpt lat="44.73531" lon="5.36266">
        <ele>824.47</ele>
        <time>2015-06-19T14:01:58Z</time>
      </trkpt>
      <trkpt lat="44.73508" lon="5.36283">
        <ele>822.06</ele>
        <time>2015-06-19T14:02:18Z</time>
      </trkpt>
      <trkpt lat="44.73488" lon="5.363">
        <ele>821.58</ele>
        <time>2015-06-19T14:02:38Z</time>
      </trkpt>
      <trkpt lat="44.73476" lon="5.3632">
        <ele>818.22</ele>
        <time>2015-06-19T14:02:58Z</time>
      </trkpt>
      <trkpt lat="44.73487" lon="5.36341">
        <ele>815.82</ele>
        <time>2015-06-19T14:03:18Z</time>
      </trkpt>
      <trkpt lat="44.735" lon="5.3636">
        <ele>813.41</ele>
        <time>2015-06-19T14:03:38Z</time>
      </trkpt>
      <trkpt lat="44.73502" lon="5.3639">
        <ele>810.05</ele>
        <time>2015-06-19T14:03:58Z</time>
      </trkpt>
      <trkpt lat="44.73493" lon="5.36419">
        <ele>808.13</ele>
        <time>2015-06-19T14:04:18Z</time>
      </trkpt>
      <trkpt lat="44.73484" lon="5.3645">
        <ele>806.68</ele>
        <time>2015-06-19T14:04:38Z</time>
      </trkpt>
      <trkpt lat="44.7348" lon="5.36478">
        <ele>804.28</ele>
        <time>2015-06-19T14:04:58Z</time>
      </trkpt>
      <trkpt lat="44.73468" lon="5.36506">
        <ele>803.32</ele>
        <time>2015-06-19T14:05:18Z</time>
      </trkpt>
      <trkpt lat="44.73461" lon="5.36533">
        <ele>800.92</ele>
        <time>2015-06-19T14:05:38Z</time>
      </trkpt>
      <trkpt lat="44.73459" lon="5.36561">
        <ele>798.03</ele>
        <time>2015-06-19T14:05:58Z</time>
      </trkpt>
      <trkpt lat="44.73454" lon="5.36582">
        <ele>796.59</ele>
        <time>2015-06-19T14:06:18Z</time>
      </trkpt>
      <trkpt lat="44.73451" lon="5.36586">
        <ele>797.07</ele>
        <time>2015-06-19T14:06:38Z</time>
      </trkpt>
      <trkpt lat="44.73432" lon="5.36606">
        <ele>795.63</ele>
        <time>2015-06-19T14:06:58Z</time>
      </trkpt>
      <trkpt lat="44.7342" lon="5.3662">
        <ele>793.71</ele>
        <time>2015-06-19T14:07:18Z</time>
      </trkpt>
      <trkpt lat="44.73398" lon="5.36631">
        <ele>791.3</ele>
        <time>2015-06-19T14:07:38Z</time>
      </trkpt>
      <trkpt lat="44.73382" lon="5.36651">
        <ele>788.42</ele>
        <time>2015-06-19T14:07:58Z</time>
      </trkpt>
      <trkpt lat="44.73368" lon="5.36672">
        <ele>786.02</ele>
        <time>2015-06-19T14:08:18Z</time>
      </trkpt>
      <trkpt lat="44.7335" lon="5.36692">
        <ele>784.09</ele>
        <time>2015-06-19T14:08:38Z</time>
      </trkpt>
      <trkpt lat="44.73327" lon="5.367">
        <ele>783.61</ele>
        <time>2015-06-19T14:08:58Z</time>
      </trkpt>
      <trkpt lat="44.73308" lon="5.3672">
        <ele>782.17</ele>
        <time>2015-06-19T14:09:18Z</time>
      </trkpt>
      <trkpt lat="44.73299" lon="5.36746">
        <ele>780.25</ele>
        <time>2015-06-19T14:09:38Z</time>
      </trkpt>
      <trkpt lat="44.73309" lon="5.36734">
        <ele>779.77</ele>
        <time>2015-06-19T14:09:58Z</time>
      </trkpt>
      <trkpt lat="44.73326" lon="5.36713">
        <ele>777.36</ele>
        <time>2015-06-19T14:10:18Z</time>
      </trkpt>
      <trkpt lat="44.73351" lon="5.36709">
        <ele>774</ele>
        <time>2015-06-19T14:10:38Z</time>
      </trkpt>
      <trkpt lat="44.73371" lon="5.36698">
        <ele>772.56</ele>
        <time>2015-06-19T14:10:58Z</time>
      </trkpt>
      <trkpt lat="44.73393" lon="5.36682">
        <ele>771.11</ele>
        <time>2015-06-19T14:11:18Z</time>
      </trkpt>
      <trkpt lat="44.73414" lon="5.36668">
        <ele>769.19</ele>
        <time>2015-06-19T14:11:38Z</time>
      </trkpt>
      <trkpt lat="44.73438" lon="5.3666">
        <ele>766.79</ele>
        <time>2015-06-19T14:11:58Z</time>
      </trkpt>
      <trkpt lat="44.73455" lon="5.36646">
        <ele>764.39</ele>
        <time>2015-06-19T14:12:18Z</time>
      </trkpt>
      <trkpt lat="44.73467" lon="5.36635">
        <ele>761.98</ele>
        <time>2015-06-19T14:12:38Z</time>
      </trkpt>
      <trkpt lat="44.73468" lon="5.36634">
        <ele>761.02</ele>
        <time>2015-06-19T14:12:58Z</time>
      </trkpt>
      <trkpt lat="44.73486" lon="5.36612">
        <ele>759.1</ele>
        <time>2015-06-19T14:13:18Z</time>
      </trkpt>
      <trkpt lat="44.73502" lon="5.36587">
        <ele>757.18</ele>
        <time>2015-06-19T14:13:38Z</time>
      </trkpt>
      <trkpt lat="44.73519" lon="5.3656">
        <ele>755.25</ele>
        <time>2015-06-19T14:13:58Z</time>
      </trkpt>
      <trkpt lat="44.73532" lon="5.3653">
        <ele>753.81</ele>
        <time>2015-06-19T14:14:18Z</time>
      </trkpt>
      <trkpt lat="44.73541" lon="5.36497">
        <ele>751.89</ele>
        <time>2015-06-19T14:14:38Z</time>
      </trkpt>
      <trkpt lat="44.73551" lon="5.36463">
        <ele>749.49</ele>
        <time>2015-06-19T14:14:58Z</time>
      </trkpt>
      <trkpt lat="44.73558" lon="5.36441">
        <ele>748.52</ele>
        <time>2015-06-19T14:15:18Z</time>
      </trkpt>
      <trkpt lat="44.73568" lon="5.36447">
        <ele>745.64</ele>
        <time>2015-06-19T14:15:38Z</time>
      </trkpt>
      <trkpt lat="44.73556" lon="5.36478">
        <ele>744.2</ele>
        <time>2015-06-19T14:15:58Z</time>
      </trkpt>
      <trkpt lat="44.73549" lon="5.36511">
        <ele>743.72</ele>
        <time>2015-06-19T14:16:18Z</time>
      </trkpt>
      <trkpt lat="44.73548" lon="5.36544">
        <ele>741.31</ele>
        <time>2015-06-19T14:16:38Z</time>
      </trkpt>
      <trkpt lat="44.73538" lon="5.36576">
        <ele>738.91</ele>
        <time>2015-06-19T14:16:58Z</time>
      </trkpt>
      <trkpt lat="44.73526" lon="5.36608">
        <ele>736.99</ele>
        <time>2015-06-19T14:17:18Z</time>
      </trkpt>
      <trkpt lat="44.73516" lon="5.36642">
        <ele>733.14</ele>
        <time>2015-06-19T14:17:38Z</time>
      </trkpt>
      <trkpt lat="44.73504" lon="5.36672">
        <ele>730.74</ele>
        <time>2015-06-19T14:17:58Z</time>
      </trkpt>
      <trkpt lat="44.73489" lon="5.36699">
        <ele>727.37</ele>
        <time>2015-06-19T14:18:18Z</time>
      </trkpt>
      <trkpt lat="44.73474" lon="5.36725">
        <ele>725.93</ele>
        <time>2015-06-19T14:18:38Z</time>
      </trkpt>
      <trkpt lat="44.73462" lon="5.3674">
        <ele>724.49</ele>
        <time>2015-06-19T14:18:58Z</time>
      </trkpt>
      <trkpt lat="44.73439" lon="5.3675">
        <ele>724.97</ele>
        <time>2015-06-19T14:19:18Z</time>
      </trkpt>
      <trkpt lat="44.7342" lon="5.36774">
        <ele>722.09</ele>
        <time>2015-06-19T14:19:38Z</time>
      </trkpt>
      <trkpt lat="44.73401" lon="5.36796">
        <ele>718.24</ele>
        <time>2015-06-19T14:19:58Z</time>
      </trkpt>
      <trkpt lat="44.73377" lon="5.368">
        <ele>715.36</ele>
        <time>2015-06-19T14:20:18Z</time>
      </trkpt>
      <trkpt lat="44.73367" lon="5.36828">
        <ele>712.47</ele>
        <time>2015-06-19T14:20:38Z</time>
      </trkpt>
      <trkpt lat="44.73354" lon="5.36861">
        <ele>710.07</ele>
        <time>2015-06-19T14:20:58Z</time>
      </trkpt>
      <trkpt lat="44.73341" lon="5.36888">
        <ele>708.63</ele>
        <time>2015-06-19T14:21:18Z</time>
      </trkpt>
      <trkpt lat="44.73338" lon="5.36924">
        <ele>707.67</ele>
        <time>2015-06-19T14:21:38Z</time>
      </trkpt>
      <trkpt lat="44.73349" lon="5.36953">
        <ele>705.75</ele>
        <time>2015-06-19T14:21:58Z</time>
      </trkpt>
      <trkpt lat="44.73373" lon="5.36954">
        <ele>703.34</ele>
        <time>2015-06-19T14:22:17Z</time>
      </trkpt>
      <trkpt lat="44.73403" lon="5.3695">
        <ele>701.42</ele>
        <time>2015-06-19T14:22:37Z</time>
      </trkpt>
      <trkpt lat="44.73428" lon="5.3695">
        <ele>697.09</ele>
        <time>2015-06-19T14:22:57Z</time>
      </trkpt>
      <trkpt lat="44.73454" lon="5.36955">
        <ele>694.69</ele>
        <time>2015-06-19T14:23:17Z</time>
      </trkpt>
      <trkpt lat="44.73484" lon="5.36959">
        <ele>691.33</ele>
        <time>2015-06-19T14:23:37Z</time>
      </trkpt>
      <trkpt lat="44.73507" lon="5.36964">
        <ele>687.96</ele>
        <time>2015-06-19T14:23:57Z</time>
      </trkpt>
      <trkpt lat="44.73534" lon="5.36969">
        <ele>683.63</ele>
        <time>2015-06-19T14:24:17Z</time>
      </trkpt>
      <trkpt lat="44.73557" lon="5.36971">
        <ele>680.75</ele>
        <time>2015-06-19T14:24:37Z</time>
      </trkpt>
      <trkpt lat="44.73542" lon="5.36964">
        <ele>678.35</ele>
        <time>2015-06-19T14:24:57Z</time>
      </trkpt>
      <trkpt lat="44.73523" lon="5.36946">
        <ele>675.46</ele>
        <time>2015-06-19T14:25:17Z</time>
      </trkpt>
      <trkpt lat="44.73496" lon="5.36927">
        <ele>674.5</ele>
        <time>2015-06-19T14:25:37Z</time>
      </trkpt>
      <trkpt lat="44.73482" lon="5.36909">
        <ele>672.1</ele>
        <time>2015-06-19T14:25:57Z</time>
      </trkpt>
      <trkpt lat="44.73501" lon="5.3691">
        <ele>669.7</ele>
        <time>2015-06-19T14:26:17Z</time>
      </trkpt>
      <trkpt lat="44.73527" lon="5.36919">
        <ele>668.25</ele>
        <time>2015-06-19T14:26:37Z</time>
      </trkpt>
      <trkpt lat="44.7355" lon="5.36923">
        <ele>666.81</ele>
        <time>2015-06-19T14:26:57Z</time>
      </trkpt>
      <trkpt lat="44.73572" lon="5.36921">
        <ele>665.85</ele>
        <time>2015-06-19T14:27:17Z</time>
      </trkpt>
      <trkpt lat="44.73598" lon="5.36915">
        <ele>664.41</ele>
        <time>2015-06-19T14:27:37Z</time>
      </trkpt>
      <trkpt lat="44.73623" lon="5.36919">
        <ele>662.49</ele>
        <time>2015-06-19T14:27:57Z</time>
      </trkpt>
      <trkpt lat="44.73643" lon="5.36915">
        <ele>661.04</ele>
        <time>2015-06-19T14:28:17Z</time>
      </trkpt>
      <trkpt lat="44.73668" lon="5.36923">
        <ele>659.6</ele>
        <time>2015-06-19T14:28:37Z</time>
      </trkpt>
      <trkpt lat="44.73692" lon="5.36928">
        <ele>658.16</ele>
        <time>2015-06-19T14:28:57Z</time>
      </trkpt>
      <trkpt lat="44.73719" lon="5.36946">
        <ele>654.8</ele>
        <time>2015-06-19T14:29:17Z</time>
      </trkpt>
      <trkpt lat="44.7372" lon="5.36976">
        <ele>652.87</ele>
        <time>2015-06-19T14:29:37Z</time>
      </trkpt>
      <trkpt lat="44.73721" lon="5.37007">
        <ele>650.47</ele>
        <time>2015-06-19T14:29:57Z</time>
      </trkpt>
      <trkpt lat="44.73721" lon="5.37041">
        <ele>649.51</ele>
        <time>2015-06-19T14:30:17Z</time>
      </trkpt>
      <trkpt lat="44.73721" lon="5.37072">
        <ele>648.07</ele>
        <time>2015-06-19T14:30:37Z</time>
      </trkpt>
      <trkpt lat="44.73727" lon="5.37091">
        <ele>645.18</ele>
        <time>2015-06-19T14:30:57Z</time>
      </trkpt>
      <trkpt lat="44.73738" lon="5.3711">
        <ele>646.14</ele>
        <time>2015-06-19T14:31:17Z</time>
      </trkpt>
      <trkpt lat="44.73739" lon="5.37111">
        <ele>644.22</ele>
        <time>2015-06-19T14:31:37Z</time>
      </trkpt>
      <trkpt lat="44.73737" lon="5.37111">
        <ele>645.18</ele>
        <time>2015-06-19T14:31:57Z</time>
      </trkpt>
      <trkpt lat="44.73738" lon="5.37111">
        <ele>645.18</ele>
        <time>2015-06-19T14:32:17Z</time>
      </trkpt>
      <trkpt lat="44.73739" lon="5.37112">
        <ele>645.66</ele>
        <time>2015-06-19T14:32:37Z</time>
      </trkpt>
      <trkpt lat="44.73738" lon="5.37111">
        <ele>645.18</ele>
        <time>2015-06-19T14:32:57Z</time>
      </trkpt>
      <trkpt lat="44.73742" lon="5.37119">
        <ele>645.18</ele>
        <time>2015-06-19T14:33:17Z</time>
      </trkpt>
      <trkpt lat="44.73748" lon="5.37136">
        <ele>643.26</ele>
        <time>2015-06-19T14:33:37Z</time>
      </trkpt>
      <trkpt lat="44.73758" lon="5.3716">
        <ele>642.3</ele>
        <time>2015-06-19T14:33:57Z</time>
      </trkpt>
      <trkpt lat="44.73766" lon="5.3719">
        <ele>641.34</ele>
        <time>2015-06-19T14:34:17Z</time>
      </trkpt>
      <trkpt lat="44.73773" lon="5.37212">
        <ele>640.38</ele>
        <time>2015-06-19T14:34:37Z</time>
      </trkpt>
      <trkpt lat="44.73781" lon="5.37235">
        <ele>638.93</ele>
        <time>2015-06-19T14:34:57Z</time>
      </trkpt>
      <trkpt lat="44.73793" lon="5.37259">
        <ele>638.93</ele>
        <time>2015-06-19T14:35:17Z</time>
      </trkpt>
      <trkpt lat="44.7379" lon="5.37286">
        <ele>635.57</ele>
        <time>2015-06-19T14:35:37Z</time>
      </trkpt>
      <trkpt lat="44.73799" lon="5.37313">
        <ele>633.17</ele>
        <time>2015-06-19T14:35:57Z</time>
      </trkpt>
      <trkpt lat="44.73807" lon="5.37332">
        <ele>629.8</ele>
        <time>2015-06-19T14:36:17Z</time>
      </trkpt>
      <trkpt lat="44.73806" lon="5.37364">
        <ele>627.88</ele>
        <time>2015-06-19T14:36:37Z</time>
      </trkpt>
      <trkpt lat="44.73801" lon="5.37387">
        <ele>626.44</ele>
        <time>2015-06-19T14:36:57Z</time>
      </trkpt>
      <trkpt lat="44.73796" lon="5.37415">
        <ele>624.99</ele>
        <time>2015-06-19T14:37:16Z</time>
      </trkpt>
      <trkpt lat="44.73792" lon="5.37447">
        <ele>622.11</ele>
        <time>2015-06-19T14:37:37Z</time>
      </trkpt>
      <trkpt lat="44.73795" lon="5.37474">
        <ele>619.23</ele>
        <time>2015-06-19T14:37:57Z</time>
      </trkpt>
      <trkpt lat="44.73784" lon="5.37505">
        <ele>615.86</ele>
        <time>2015-06-19T14:38:17Z</time>
      </trkpt>
      <trkpt lat="44.73768" lon="5.37531">
        <ele>613.46</ele>
        <time>2015-06-19T14:38:37Z</time>
      </trkpt>
      <trkpt lat="44.73767" lon="5.37537">
        <ele>610.09</ele>
        <time>2015-06-19T14:38:57Z</time>
      </trkpt>
      <trkpt lat="44.73773" lon="5.37519">
        <ele>606.73</ele>
        <time>2015-06-19T14:39:17Z</time>
      </trkpt>
      <trkpt lat="44.7378" lon="5.37499">
        <ele>603.85</ele>
        <time>2015-06-19T14:39:37Z</time>
      </trkpt>
      <trkpt lat="44.73798" lon="5.3748">
        <ele>598.56</ele>
        <time>2015-06-19T14:39:57Z</time>
      </trkpt>
      <trkpt lat="44.73799" lon="5.37456">
        <ele>594.71</ele>
        <time>2015-06-19T14:40:17Z</time>
      </trkpt>
      <trkpt lat="44.73808" lon="5.37427">
        <ele>591.35</ele>
        <time>2015-06-19T14:40:37Z</time>
      </trkpt>
      <trkpt lat="44.73817" lon="5.37407">
        <ele>587.5</ele>
        <time>2015-06-19T14:40:57Z</time>
      </trkpt>
      <trkpt lat="44.73822" lon="5.37384">
        <ele>584.14</ele>
        <time>2015-06-19T14:41:17Z</time>
      </trkpt>
      <trkpt lat="44.73828" lon="5.37358">
        <ele>580.29</ele>
        <time>2015-06-19T14:41:37Z</time>
      </trkpt>
      <trkpt lat="44.73837" lon="5.37339">
        <ele>577.89</ele>
        <time>2015-06-19T14:41:57Z</time>
      </trkpt>
      <trkpt lat="44.73841" lon="5.37323">
        <ele>575.01</ele>
        <time>2015-06-19T14:42:17Z</time>
      </trkpt>
      <trkpt lat="44.73841" lon="5.37323">
        <ele>575.01</ele>
        <time>2015-06-19T14:42:37Z</time>
      </trkpt>
      <trkpt lat="44.7384" lon="5.37322">
        <ele>574.53</ele>
        <time>2015-06-19T14:42:57Z</time>
      </trkpt>
      <trkpt lat="44.73842" lon="5.37306">
        <ele>573.56</ele>
        <time>2015-06-19T14:43:17Z</time>
      </trkpt>
      <trkpt lat="44.73848" lon="5.37279">
        <ele>571.64</ele>
        <time>2015-06-19T14:43:37Z</time>
      </trkpt>
      <trkpt lat="44.73849" lon="5.37255">
        <ele>570.2</ele>
        <time>2015-06-19T14:43:57Z</time>
      </trkpt>
      <trkpt lat="44.73843" lon="5.37243">
        <ele>569.72</ele>
        <time>2015-06-19T14:44:17Z</time>
      </trkpt>
      <trkpt lat="44.73854" lon="5.37226">
        <ele>567.32</ele>
        <time>2015-06-19T14:44:36Z</time>
      </trkpt>
      <trkpt lat="44.73874" lon="5.37202">
        <ele>564.91</ele>
        <time>2015-06-19T14:44:57Z</time>
      </trkpt>
      <trkpt lat="44.73884" lon="5.37187">
        <ele>561.07</ele>
        <time>2015-06-19T14:45:17Z</time>
      </trkpt>
      <trkpt lat="44.73894" lon="5.37167">
        <ele>557.7</ele>
        <time>2015-06-19T14:45:37Z</time>
      </trkpt>
      <trkpt lat="44.73914" lon="5.37146">
        <ele>554.82</ele>
        <time>2015-06-19T14:45:57Z</time>
      </trkpt>
      <trkpt lat="44.73929" lon="5.37127">
        <ele>553.38</ele>
        <time>2015-06-19T14:46:17Z</time>
      </trkpt>
      <trkpt lat="44.73952" lon="5.37107">
        <ele>550.01</ele>
        <time>2015-06-19T14:46:37Z</time>
      </trkpt>
      <trkpt lat="44.73967" lon="5.37085">
        <ele>547.13</ele>
        <time>2015-06-19T14:46:57Z</time>
      </trkpt>
      <trkpt lat="44.73982" lon="5.3706">
        <ele>543.28</ele>
        <time>2015-06-19T14:47:17Z</time>
      </trkpt>
      <trkpt lat="44.73989" lon="5.37039">
        <ele>542.8</ele>
        <time>2015-06-19T14:47:37Z</time>
      </trkpt>
      <trkpt lat="44.73992" lon="5.37058">
        <ele>539.92</ele>
        <time>2015-06-19T14:47:57Z</time>
      </trkpt>
      <trkpt lat="44.73988" lon="5.37096">
        <ele>538.48</ele>
        <time>2015-06-19T14:48:17Z</time>
      </trkpt>
      <trkpt lat="44.73991" lon="5.37129">
        <ele>535.59</ele>
        <time>2015-06-19T14:48:37Z</time>
      </trkpt>
      <trkpt lat="44.73986" lon="5.37161">
        <ele>533.67</ele>
        <time>2015-06-19T14:48:57Z</time>
      </trkpt>
      <trkpt lat="44.73986" lon="5.37194">
        <ele>530.3</ele>
        <time>2015-06-19T14:49:17Z</time>
      </trkpt>
      <trkpt lat="44.73984" lon="5.37227">
        <ele>527.9</ele>
        <time>2015-06-19T14:49:37Z</time>
      </trkpt>
      <trkpt lat="44.73981" lon="5.37256">
        <ele>524.54</ele>
        <time>2015-06-19T14:49:57Z</time>
      </trkpt>
      <trkpt lat="44.73969" lon="5.37284">
        <ele>522.13</ele>
        <time>2015-06-19T14:50:17Z</time>
      </trkpt>
      <trkpt lat="44.73984" lon="5.37307">
        <ele>519.73</ele>
        <time>2015-06-19T14:50:37Z</time>
      </trkpt>
      <trkpt lat="44.73989" lon="5.37324">
        <ele>518.77</ele>
        <time>2015-06-19T14:50:57Z</time>
      </trkpt>
      <trkpt lat="44.73989" lon="5.37324">
        <ele>518.29</ele>
        <time>2015-06-19T14:51:17Z</time>
      </trkpt>
      <trkpt lat="44.73989" lon="5.37324">
        <ele>516.85</ele>
        <time>2015-06-19T14:51:30Z</time>
      </trkpt>
    </trkseg>
  </trk>
</gpx>